<?xml version="1.0" encoding="UTF-8"?>
<gpx version="1.1" creator="2bulu-scraper" xmlns="http://www.topografix.com/GPX/1/1">
  <metadata><name>自贡荣县</name><desc>source: 2bulu.com trackId=85555082; exported 2026-09-01T15:47:11.707Z</desc>
    <bounds minlat="29.4926475" minlon="104.3338213" maxlat="29.5090703" maxlon="104.3499015"/>
    <link href="https://www.2bulu.com/track/t-q0J563BoRdHp%252FR2KBg5Tzw%253D%253D.htm"><text>2bulu 源页面</text></link>
  </metadata>
  <wpt lat="29.4984744" lon="104.3492884"><ele>669</ele><name>
        </name></wpt>
  <wpt lat="29.497796" lon="104.346264"><ele>662</ele><name>
        </name></wpt>
  <wpt lat="29.4945346" lon="104.3437858"><ele>649</ele><name>
        </name></wpt>
  <wpt lat="29.4934169" lon="104.3432059"><ele>646</ele><name>
        </name></wpt>
  <wpt lat="29.4936831" lon="104.3428845"><ele>600</ele><name>挑担岩
        </name></wpt>
  <wpt lat="29.4938589" lon="104.342967"><ele>602</ele><name>
        </name></wpt>
  <wpt lat="29.4950479" lon="104.3436617"><ele>599</ele><name>
        </name></wpt>
  <wpt lat="29.4980177" lon="104.3438392"><ele>565</ele><name>桐子湾
        </name></wpt>
  <wpt lat="29.4983547" lon="104.3437056"><ele>551</ele><name>
        </name></wpt>
  <trk><name>自贡荣县</name>
      <trkseg>
        <trkpt lat="29.4991335" lon="104.3494752"><ele>660.35</ele><time>2026-05-20T16:42:38.000Z</time></trkpt>
        <trkpt lat="29.4990816" lon="104.3495304"><ele>660.35</ele><time>2026-05-20T16:43:00.000Z</time></trkpt>
        <trkpt lat="29.4990098" lon="104.349591"><ele>661.9</ele><time>2026-05-20T16:43:18.000Z</time></trkpt>
        <trkpt lat="29.498932" lon="104.3496737"><ele>662.89</ele><time>2026-05-20T16:43:32.000Z</time></trkpt>
        <trkpt lat="29.4988823" lon="104.3497175"><ele>663.15</ele><time>2026-05-20T16:43:38.000Z</time></trkpt>
        <trkpt lat="29.4988112" lon="104.3497841"><ele>663.44</ele><time>2026-05-20T16:43:46.000Z</time></trkpt>
        <trkpt lat="29.4987834" lon="104.3498046"><ele>663.23</ele><time>2026-05-20T16:43:56.000Z</time></trkpt>
        <trkpt lat="29.4987529" lon="104.3498847"><ele>663.45</ele><time>2026-05-20T16:44:14.000Z</time></trkpt>
        <trkpt lat="29.4986778" lon="104.3499015"><ele>663.59</ele><time>2026-05-20T16:44:40.000Z</time></trkpt>
        <trkpt lat="29.4986293" lon="104.3498243"><ele>663.44</ele><time>2026-05-20T16:44:50.000Z</time></trkpt>
        <trkpt lat="29.4986029" lon="104.349715"><ele>663.55</ele><time>2026-05-20T16:45:00.000Z</time></trkpt>
        <trkpt lat="29.4985943" lon="104.3495962"><ele>665.4</ele><time>2026-05-20T16:45:18.000Z</time></trkpt>
        <trkpt lat="29.4985617" lon="104.3494882"><ele>665.84</ele><time>2026-05-20T16:45:30.000Z</time></trkpt>
        <trkpt lat="29.4985323" lon="104.3493847"><ele>662.76</ele><time>2026-05-20T16:45:44.000Z</time></trkpt>
        <trkpt lat="29.4984744" lon="104.3492884"><ele>660.97</ele><time>2026-05-20T16:45:56.000Z</time></trkpt>
        <trkpt lat="29.4984036" lon="104.3492132"><ele>664.29</ele><time>2026-05-20T16:46:06.000Z</time></trkpt>
        <trkpt lat="29.4983281" lon="104.3491396"><ele>665.77</ele><time>2026-05-20T16:46:16.000Z</time></trkpt>
        <trkpt lat="29.4982918" lon="104.3490428"><ele>661.44</ele><time>2026-05-20T16:46:28.000Z</time></trkpt>
        <trkpt lat="29.4982709" lon="104.3489406"><ele>658.59</ele><time>2026-05-20T16:46:38.000Z</time></trkpt>
        <trkpt lat="29.4982328" lon="104.3488474"><ele>656.69</ele><time>2026-05-20T16:46:46.000Z</time></trkpt>
        <trkpt lat="29.4981592" lon="104.3487639"><ele>655.75</ele><time>2026-05-20T16:46:56.000Z</time></trkpt>
        <trkpt lat="29.4980892" lon="104.348683"><ele>655.7</ele><time>2026-05-20T16:47:06.000Z</time></trkpt>
        <trkpt lat="29.4980357" lon="104.3485854"><ele>655.38</ele><time>2026-05-20T16:47:16.000Z</time></trkpt>
        <trkpt lat="29.4979851" lon="104.3484781"><ele>655.44</ele><time>2026-05-20T16:47:26.000Z</time></trkpt>
        <trkpt lat="29.4979339" lon="104.3483776"><ele>655.82</ele><time>2026-05-20T16:47:36.000Z</time></trkpt>
        <trkpt lat="29.4979065" lon="104.3482703"><ele>656.36</ele><time>2026-05-20T16:47:46.000Z</time></trkpt>
        <trkpt lat="29.4979314" lon="104.3481597"><ele>656.81</ele><time>2026-05-20T16:47:58.000Z</time></trkpt>
        <trkpt lat="29.4979632" lon="104.3480537"><ele>657.38</ele><time>2026-05-20T16:48:06.000Z</time></trkpt>
        <trkpt lat="29.4979949" lon="104.3479379"><ele>658.42</ele><time>2026-05-20T16:48:18.000Z</time></trkpt>
        <trkpt lat="29.4980192" lon="104.3478283"><ele>659.74</ele><time>2026-05-20T16:48:28.000Z</time></trkpt>
        <trkpt lat="29.4980051" lon="104.347725"><ele>660.68</ele><time>2026-05-20T16:48:40.000Z</time></trkpt>
        <trkpt lat="29.4980099" lon="104.3476212"><ele>661.64</ele><time>2026-05-20T16:48:52.000Z</time></trkpt>
        <trkpt lat="29.4980132" lon="104.3475094"><ele>662.72</ele><time>2026-05-20T16:49:02.000Z</time></trkpt>
        <trkpt lat="29.4980332" lon="104.3473978"><ele>664.15</ele><time>2026-05-20T16:49:16.000Z</time></trkpt>
        <trkpt lat="29.4980749" lon="104.347299"><ele>666.22</ele><time>2026-05-20T16:49:28.000Z</time></trkpt>
        <trkpt lat="29.4981354" lon="104.3472152"><ele>667.51</ele><time>2026-05-20T16:49:38.000Z</time></trkpt>
        <trkpt lat="29.4981985" lon="104.347127"><ele>668.4</ele><time>2026-05-20T16:49:50.000Z</time></trkpt>
        <trkpt lat="29.4982165" lon="104.3470232"><ele>670.09</ele><time>2026-05-20T16:50:00.000Z</time></trkpt>
        <trkpt lat="29.4981644" lon="104.3469256"><ele>671.07</ele><time>2026-05-20T16:50:14.000Z</time></trkpt>
        <trkpt lat="29.4980779" lon="104.3468495"><ele>670.67</ele><time>2026-05-20T16:50:24.000Z</time></trkpt>
        <trkpt lat="29.4979922" lon="104.3467871"><ele>669.93</ele><time>2026-05-20T16:50:36.000Z</time></trkpt>
        <trkpt lat="29.4979121" lon="104.3467145"><ele>668.59</ele><time>2026-05-20T16:50:48.000Z</time></trkpt>
        <trkpt lat="29.4978601" lon="104.3466105"><ele>667.27</ele><time>2026-05-20T16:51:02.000Z</time></trkpt>
        <trkpt lat="29.4978319" lon="104.3464937"><ele>666.8</ele><time>2026-05-20T16:51:10.000Z</time></trkpt>
        <trkpt lat="29.4978113" lon="104.3463779"><ele>670.81</ele><time>2026-05-20T16:51:18.000Z</time></trkpt>
        <trkpt lat="29.497796" lon="104.346264"><ele>673.08</ele><time>2026-05-20T16:51:32.000Z</time></trkpt>
        <trkpt lat="29.4977582" lon="104.3461507"><ele>668.48</ele><time>2026-05-20T16:51:54.000Z</time></trkpt>
        <trkpt lat="29.4976856" lon="104.3460689"><ele>671.51</ele><time>2026-05-20T16:52:02.000Z</time></trkpt>
        <trkpt lat="29.4975986" lon="104.3460027"><ele>673.6</ele><time>2026-05-20T16:52:12.000Z</time></trkpt>
        <trkpt lat="29.4975156" lon="104.3459135"><ele>674.32</ele><time>2026-05-20T16:52:22.000Z</time></trkpt>
        <trkpt lat="29.4974632" lon="104.345814"><ele>673.17</ele><time>2026-05-20T16:52:32.000Z</time></trkpt>
        <trkpt lat="29.4974306" lon="104.3457027"><ele>671.51</ele><time>2026-05-20T16:52:40.000Z</time></trkpt>
        <trkpt lat="29.4974161" lon="104.3455816"><ele>670.05</ele><time>2026-05-20T16:52:50.000Z</time></trkpt>
        <trkpt lat="29.4973889" lon="104.3454649"><ele>669.26</ele><time>2026-05-20T16:52:58.000Z</time></trkpt>
        <trkpt lat="29.4973692" lon="104.3453547"><ele>669.72</ele><time>2026-05-20T16:53:12.000Z</time></trkpt>
        <trkpt lat="29.497303" lon="104.3452877"><ele>669.13</ele><time>2026-05-20T16:53:22.000Z</time></trkpt>
        <trkpt lat="29.4972084" lon="104.3452365"><ele>667.97</ele><time>2026-05-20T16:53:34.000Z</time></trkpt>
        <trkpt lat="29.4971041" lon="104.3452112"><ele>667.42</ele><time>2026-05-20T16:53:44.000Z</time></trkpt>
        <trkpt lat="29.4969876" lon="104.3452196"><ele>667.13</ele><time>2026-05-20T16:53:54.000Z</time></trkpt>
        <trkpt lat="29.4968854" lon="104.345231"><ele>667.55</ele><time>2026-05-20T16:54:02.000Z</time></trkpt>
        <trkpt lat="29.4967887" lon="104.3452375"><ele>668.28</ele><time>2026-05-20T16:54:10.000Z</time></trkpt>
        <trkpt lat="29.4966845" lon="104.345231"><ele>668.76</ele><time>2026-05-20T16:54:20.000Z</time></trkpt>
        <trkpt lat="29.496583" lon="104.3451899"><ele>668.6</ele><time>2026-05-20T16:54:30.000Z</time></trkpt>
        <trkpt lat="29.4964975" lon="104.345129"><ele>668.11</ele><time>2026-05-20T16:54:38.000Z</time></trkpt>
        <trkpt lat="29.4964339" lon="104.3450492"><ele>667.66</ele><time>2026-05-20T16:54:46.000Z</time></trkpt>
        <trkpt lat="29.4964092" lon="104.3449386"><ele>666.95</ele><time>2026-05-20T16:54:56.000Z</time></trkpt>
        <trkpt lat="29.4963857" lon="104.3448141"><ele>665.79</ele><time>2026-05-20T16:55:06.000Z</time></trkpt>
        <trkpt lat="29.4963443" lon="104.3447095"><ele>664.64</ele><time>2026-05-20T16:55:16.000Z</time></trkpt>
        <trkpt lat="29.4962656" lon="104.344653"><ele>664</ele><time>2026-05-20T16:56:24.000Z</time></trkpt>
        <trkpt lat="29.4961828" lon="104.344605"><ele>663.59</ele><time>2026-05-20T16:56:32.000Z</time></trkpt>
        <trkpt lat="29.4960876" lon="104.3445613"><ele>663.93</ele><time>2026-05-20T16:56:45.000Z</time></trkpt>
        <trkpt lat="29.4959984" lon="104.3445334"><ele>663.94</ele><time>2026-05-20T16:58:59.000Z</time></trkpt>
        <trkpt lat="29.4958989" lon="104.3445277"><ele>663.88</ele><time>2026-05-20T16:59:11.000Z</time></trkpt>
        <trkpt lat="29.4957887" lon="104.3445188"><ele>663.69</ele><time>2026-05-20T16:59:23.000Z</time></trkpt>
        <trkpt lat="29.4956914" lon="104.3444723"><ele>662.32</ele><time>2026-05-20T16:59:39.000Z</time></trkpt>
        <trkpt lat="29.4956086" lon="104.3444189"><ele>662.83</ele><time>2026-05-20T16:59:49.000Z</time></trkpt>
        <trkpt lat="29.4955294" lon="104.3443493"><ele>662.46</ele><time>2026-05-20T17:00:01.000Z</time></trkpt>
        <trkpt lat="29.4954488" lon="104.3442928"><ele>660.8</ele><time>2026-05-20T17:00:13.000Z</time></trkpt>
        <trkpt lat="29.4953429" lon="104.344246"><ele>659.17</ele><time>2026-05-20T17:00:21.000Z</time></trkpt>
        <trkpt lat="29.4953008" lon="104.3442229"><ele>658.2</ele><time>2026-05-20T17:00:33.000Z</time></trkpt>
        <trkpt lat="29.4952294" lon="104.3441947"><ele>657.45</ele><time>2026-05-20T17:00:51.000Z</time></trkpt>
        <trkpt lat="29.4951467" lon="104.3441405"><ele>656.77</ele><time>2026-05-20T17:01:03.000Z</time></trkpt>
        <trkpt lat="29.4950568" lon="104.3440985"><ele>654.14</ele><time>2026-05-20T17:01:59.000Z</time></trkpt>
        <trkpt lat="29.4949693" lon="104.344039"><ele>655.38</ele><time>2026-05-20T17:02:11.000Z</time></trkpt>
        <trkpt lat="29.4948715" lon="104.343994"><ele>656.39</ele><time>2026-05-20T17:02:23.000Z</time></trkpt>
        <trkpt lat="29.4947857" lon="104.3439441"><ele>657.04</ele><time>2026-05-20T17:02:34.000Z</time></trkpt>
        <trkpt lat="29.4947087" lon="104.3438817"><ele>652.82</ele><time>2026-05-20T17:02:50.000Z</time></trkpt>
        <trkpt lat="29.4946228" lon="104.3438301"><ele>649.99</ele><time>2026-05-20T17:03:04.000Z</time></trkpt>
        <trkpt lat="29.4945346" lon="104.3437858"><ele>649.19</ele><time>2026-05-20T17:03:16.000Z</time></trkpt>
        <trkpt lat="29.4944435" lon="104.3437312"><ele>649.01</ele><time>2026-05-20T17:03:28.000Z</time></trkpt>
        <trkpt lat="29.4943551" lon="104.3436927"><ele>648.72</ele><time>2026-05-20T17:03:38.000Z</time></trkpt>
        <trkpt lat="29.494258" lon="104.343655"><ele>648.64</ele><time>2026-05-20T17:03:48.000Z</time></trkpt>
        <trkpt lat="29.4941654" lon="104.3436461"><ele>648.35</ele><time>2026-05-20T17:03:58.000Z</time></trkpt>
        <trkpt lat="29.494063" lon="104.3436502"><ele>648.72</ele><time>2026-05-20T17:04:10.000Z</time></trkpt>
        <trkpt lat="29.4939693" lon="104.3436701"><ele>649.15</ele><time>2026-05-20T17:04:20.000Z</time></trkpt>
        <trkpt lat="29.4938591" lon="104.3436735"><ele>650.15</ele><time>2026-05-20T17:04:32.000Z</time></trkpt>
        <trkpt lat="29.493766" lon="104.3436332"><ele>650.61</ele><time>2026-05-20T17:04:38.000Z</time></trkpt>
        <trkpt lat="29.49368" lon="104.3435769"><ele>651.05</ele><time>2026-05-20T17:04:54.000Z</time></trkpt>
        <trkpt lat="29.493613" lon="104.3434843"><ele>650.76</ele><time>2026-05-20T17:05:06.000Z</time></trkpt>
        <trkpt lat="29.4935455" lon="104.3433793"><ele>650.21</ele><time>2026-05-20T17:05:18.000Z</time></trkpt>
        <trkpt lat="29.4934822" lon="104.3432886"><ele>649.34</ele><time>2026-05-20T17:05:32.000Z</time></trkpt>
        <trkpt lat="29.4934169" lon="104.3432059"><ele>649.09</ele><time>2026-05-20T17:05:42.000Z</time></trkpt>
        <trkpt lat="29.4933499" lon="104.3431324"><ele>647.7</ele><time>2026-05-20T17:05:54.000Z</time></trkpt>
        <trkpt lat="29.4932679" lon="104.3430816"><ele>646.73</ele><time>2026-05-20T17:06:04.000Z</time></trkpt>
        <trkpt lat="29.4931772" lon="104.3430396"><ele>646.08</ele><time>2026-05-20T17:06:14.000Z</time></trkpt>
        <trkpt lat="29.4930921" lon="104.3429848"><ele>644.64</ele><time>2026-05-20T17:06:26.000Z</time></trkpt>
        <trkpt lat="29.4930081" lon="104.3429234"><ele>642.59</ele><time>2026-05-20T17:06:36.000Z</time></trkpt>
        <trkpt lat="29.4929123" lon="104.3428682"><ele>640.27</ele><time>2026-05-20T17:06:48.000Z</time></trkpt>
        <trkpt lat="29.4928264" lon="104.3428141"><ele>637.43</ele><time>2026-05-20T17:06:58.000Z</time></trkpt>
        <trkpt lat="29.492739" lon="104.3427449"><ele>635.37</ele><time>2026-05-20T17:07:08.000Z</time></trkpt>
        <trkpt lat="29.4926475" lon="104.3426966"><ele>633.5</ele><time>2026-05-20T17:07:18.000Z</time></trkpt>
        <trkpt lat="29.4926502" lon="104.3426136"><ele>632.8</ele><time>2026-05-20T17:08:06.000Z</time></trkpt>
        <trkpt lat="29.4927567" lon="104.3425329"><ele>632.49</ele><time>2026-05-20T17:11:32.000Z</time></trkpt>
        <trkpt lat="29.4928526" lon="104.3425387"><ele>629.21</ele><time>2026-05-20T17:12:16.000Z</time></trkpt>
        <trkpt lat="29.4929576" lon="104.3425623"><ele>625.15</ele><time>2026-05-20T17:12:38.000Z</time></trkpt>
        <trkpt lat="29.493058" lon="104.3425944"><ele>622.14</ele><time>2026-05-20T17:12:54.000Z</time></trkpt>
        <trkpt lat="29.4931583" lon="104.3426402"><ele>618.98</ele><time>2026-05-20T17:13:10.000Z</time></trkpt>
        <trkpt lat="29.4932601" lon="104.3426546"><ele>616.3</ele><time>2026-05-20T17:13:18.000Z</time></trkpt>
        <trkpt lat="29.4933472" lon="104.3426942"><ele>614.53</ele><time>2026-05-20T17:13:26.000Z</time></trkpt>
        <trkpt lat="29.4934303" lon="104.3427323"><ele>612.63</ele><time>2026-05-20T17:15:16.000Z</time></trkpt>
        <trkpt lat="29.4935028" lon="104.3427993"><ele>610.06</ele><time>2026-05-20T17:15:58.000Z</time></trkpt>
        <trkpt lat="29.4935864" lon="104.342843"><ele>607.13</ele><time>2026-05-20T17:16:34.000Z</time></trkpt>
        <trkpt lat="29.4936831" lon="104.3428845"><ele>604.08</ele><time>2026-05-20T17:16:46.000Z</time></trkpt>
        <trkpt lat="29.4937687" lon="104.3429374"><ele>602.23</ele><time>2026-05-20T17:17:20.000Z</time></trkpt>
        <trkpt lat="29.4938589" lon="104.342967"><ele>601.3</ele><time>2026-05-20T17:17:30.000Z</time></trkpt>
        <trkpt lat="29.4939444" lon="104.3430225"><ele>601.78</ele><time>2026-05-20T17:17:46.000Z</time></trkpt>
        <trkpt lat="29.494034" lon="104.3430563"><ele>600.72</ele><time>2026-05-20T17:18:02.000Z</time></trkpt>
        <trkpt lat="29.4941038" lon="104.3430743"><ele>600.3</ele><time>2026-05-20T17:18:10.000Z</time></trkpt>
        <trkpt lat="29.4941848" lon="104.3431083"><ele>601.14</ele><time>2026-05-20T17:18:28.000Z</time></trkpt>
        <trkpt lat="29.4942656" lon="104.3431536"><ele>601.4</ele><time>2026-05-20T17:18:42.000Z</time></trkpt>
        <trkpt lat="29.4943558" lon="104.3432069"><ele>601.54</ele><time>2026-05-20T17:19:04.000Z</time></trkpt>
        <trkpt lat="29.4944497" lon="104.3432504"><ele>600.94</ele><time>2026-05-20T17:19:22.000Z</time></trkpt>
        <trkpt lat="29.4945337" lon="104.3433103"><ele>599.82</ele><time>2026-05-20T17:19:56.000Z</time></trkpt>
        <trkpt lat="29.4946111" lon="104.3433858"><ele>598.34</ele><time>2026-05-20T17:20:10.000Z</time></trkpt>
        <trkpt lat="29.494686" lon="104.3434516"><ele>596.01</ele><time>2026-05-20T17:20:20.000Z</time></trkpt>
        <trkpt lat="29.4947625" lon="104.343515"><ele>593.69</ele><time>2026-05-20T17:20:34.000Z</time></trkpt>
        <trkpt lat="29.4948478" lon="104.3435683"><ele>592.71</ele><time>2026-05-20T17:20:42.000Z</time></trkpt>
        <trkpt lat="29.4949465" lon="104.3436146"><ele>593.58</ele><time>2026-05-20T17:21:06.000Z</time></trkpt>
        <trkpt lat="29.4950479" lon="104.3436617"><ele>594.84</ele><time>2026-05-20T17:21:24.000Z</time></trkpt>
        <trkpt lat="29.4951391" lon="104.3436988"><ele>596.83</ele><time>2026-05-20T17:21:52.000Z</time></trkpt>
        <trkpt lat="29.495234" lon="104.3437342"><ele>599.06</ele><time>2026-05-20T17:22:08.000Z</time></trkpt>
        <trkpt lat="29.4953262" lon="104.3437274"><ele>600.56</ele><time>2026-05-20T17:22:34.000Z</time></trkpt>
        <trkpt lat="29.4954152" lon="104.3436981"><ele>601.17</ele><time>2026-05-20T17:23:30.000Z</time></trkpt>
        <trkpt lat="29.4955104" lon="104.3436739"><ele>601.24</ele><time>2026-05-20T17:23:44.000Z</time></trkpt>
        <trkpt lat="29.4956111" lon="104.343662"><ele>601.35</ele><time>2026-05-20T17:23:58.000Z</time></trkpt>
        <trkpt lat="29.4957003" lon="104.343695"><ele>601.55</ele><time>2026-05-20T17:24:50.000Z</time></trkpt>
        <trkpt lat="29.4957885" lon="104.3437336"><ele>601.27</ele><time>2026-05-20T17:25:10.000Z</time></trkpt>
        <trkpt lat="29.4958819" lon="104.3437953"><ele>600.89</ele><time>2026-05-20T17:25:18.000Z</time></trkpt>
        <trkpt lat="29.4959894" lon="104.3438262"><ele>600.6</ele><time>2026-05-20T17:25:28.000Z</time></trkpt>
        <trkpt lat="29.4960631" lon="104.3438425"><ele>600.3</ele><time>2026-05-20T17:25:34.000Z</time></trkpt>
        <trkpt lat="29.496156" lon="104.3438325"><ele>599.94</ele><time>2026-05-20T17:26:24.000Z</time></trkpt>
        <trkpt lat="29.4962314" lon="104.3438119"><ele>600.13</ele><time>2026-05-20T17:26:32.000Z</time></trkpt>
        <trkpt lat="29.4963157" lon="104.3437924"><ele>600.13</ele><time>2026-05-20T17:26:42.000Z</time></trkpt>
        <trkpt lat="29.4964044" lon="104.3437719"><ele>599.04</ele><time>2026-05-20T17:26:54.000Z</time></trkpt>
        <trkpt lat="29.4964931" lon="104.3437409"><ele>599.62</ele><time>2026-05-20T17:27:08.000Z</time></trkpt>
        <trkpt lat="29.4966005" lon="104.3437037"><ele>599.96</ele><time>2026-05-20T17:27:20.000Z</time></trkpt>
        <trkpt lat="29.4966442" lon="104.3436833"><ele>598.75</ele><time>2026-05-20T17:27:32.000Z</time></trkpt>
        <trkpt lat="29.496724" lon="104.3436551"><ele>598.97</ele><time>2026-05-20T17:27:50.000Z</time></trkpt>
        <trkpt lat="29.496822" lon="104.3436189"><ele>598.85</ele><time>2026-05-20T17:28:14.000Z</time></trkpt>
        <trkpt lat="29.496915" lon="104.3435888"><ele>598.67</ele><time>2026-05-20T17:28:22.000Z</time></trkpt>
        <trkpt lat="29.4970161" lon="104.3435852"><ele>598</ele><time>2026-05-20T17:28:32.000Z</time></trkpt>
        <trkpt lat="29.4971052" lon="104.3436166"><ele>597.5</ele><time>2026-05-20T17:28:40.000Z</time></trkpt>
        <trkpt lat="29.4971884" lon="104.3436672"><ele>597.36</ele><time>2026-05-20T17:28:58.000Z</time></trkpt>
        <trkpt lat="29.4972552" lon="104.3437615"><ele>597.9</ele><time>2026-05-20T17:29:10.000Z</time></trkpt>
        <trkpt lat="29.4973032" lon="104.3438639"><ele>597.78</ele><time>2026-05-20T17:29:20.000Z</time></trkpt>
        <trkpt lat="29.49733" lon="104.3439752"><ele>597.55</ele><time>2026-05-20T17:29:30.000Z</time></trkpt>
        <trkpt lat="29.4973511" lon="104.3440523"><ele>600.51</ele><time>2026-05-20T17:29:42.000Z</time></trkpt>
        <trkpt lat="29.497357" lon="104.3441647"><ele>599.95</ele><time>2026-05-20T17:29:58.000Z</time></trkpt>
        <trkpt lat="29.4973803" lon="104.3442721"><ele>599.48</ele><time>2026-05-20T17:30:06.000Z</time></trkpt>
        <trkpt lat="29.4974083" lon="104.3443883"><ele>599.66</ele><time>2026-05-20T17:30:20.000Z</time></trkpt>
        <trkpt lat="29.4974541" lon="104.3444873"><ele>597.37</ele><time>2026-05-20T17:30:32.000Z</time></trkpt>
        <trkpt lat="29.4975292" lon="104.3445486"><ele>596.76</ele><time>2026-05-20T17:30:54.000Z</time></trkpt>
        <trkpt lat="29.4976367" lon="104.3445614"><ele>598.1</ele><time>2026-05-20T17:32:52.000Z</time></trkpt>
        <trkpt lat="29.4977413" lon="104.344515"><ele>598.57</ele><time>2026-05-20T17:33:02.000Z</time></trkpt>
        <trkpt lat="29.4978329" lon="104.3444946"><ele>598.98</ele><time>2026-05-20T17:33:10.000Z</time></trkpt>
        <trkpt lat="29.4979322" lon="104.3444617"><ele>595.14</ele><time>2026-05-20T17:33:34.000Z</time></trkpt>
        <trkpt lat="29.498034" lon="104.3444368"><ele>596.62</ele><time>2026-05-20T17:33:46.000Z</time></trkpt>
        <trkpt lat="29.4979502" lon="104.3444782"><ele>597.57</ele><time>2026-05-20T17:35:10.000Z</time></trkpt>
        <trkpt lat="29.4978413" lon="104.3445113"><ele>598.32</ele><time>2026-05-20T17:35:22.000Z</time></trkpt>
        <trkpt lat="29.4977719" lon="104.3445304"><ele>598.58</ele><time>2026-05-20T17:35:32.000Z</time></trkpt>
        <trkpt lat="29.4976782" lon="104.3445512"><ele>599.1</ele><time>2026-05-20T17:35:50.000Z</time></trkpt>
        <trkpt lat="29.4976078" lon="104.3445621"><ele>599.78</ele><time>2026-05-20T17:35:58.000Z</time></trkpt>
        <trkpt lat="29.4975274" lon="104.3445353"><ele>600.49</ele><time>2026-05-20T17:36:12.000Z</time></trkpt>
        <trkpt lat="29.4974512" lon="104.3444769"><ele>601.25</ele><time>2026-05-20T17:36:20.000Z</time></trkpt>
        <trkpt lat="29.4974291" lon="104.3444497"><ele>601.42</ele><time>2026-05-20T17:36:22.000Z</time></trkpt>
        <trkpt lat="29.4974047" lon="104.3443559"><ele>601.51</ele><time>2026-05-20T17:36:38.000Z</time></trkpt>
        <trkpt lat="29.4974672" lon="104.344248"><ele>601.89</ele><time>2026-05-20T17:38:12.000Z</time></trkpt>
        <trkpt lat="29.4975657" lon="104.3442635"><ele>602.16</ele><time>2026-05-20T17:40:32.000Z</time></trkpt>
        <trkpt lat="29.4976581" lon="104.3442509"><ele>599.66</ele><time>2026-05-20T17:41:00.000Z</time></trkpt>
        <trkpt lat="29.4977416" lon="104.3441974"><ele>597.78</ele><time>2026-05-20T17:41:26.000Z</time></trkpt>
        <trkpt lat="29.4978212" lon="104.344139"><ele>595.35</ele><time>2026-05-20T17:41:58.000Z</time></trkpt>
        <trkpt lat="29.4978802" lon="104.3440585"><ele>591.55</ele><time>2026-05-20T17:42:30.000Z</time></trkpt>
        <trkpt lat="29.497927" lon="104.3439625"><ele>585.98</ele><time>2026-05-20T17:42:54.000Z</time></trkpt>
        <trkpt lat="29.4979927" lon="104.3438774"><ele>580.6</ele><time>2026-05-20T17:43:44.000Z</time></trkpt>
        <trkpt lat="29.498062" lon="104.3438066"><ele>574.92</ele><time>2026-05-20T17:48:32.000Z</time></trkpt>
        <trkpt lat="29.498158" lon="104.3437937"><ele>569.07</ele><time>2026-05-20T17:48:54.000Z</time></trkpt>
        <trkpt lat="29.4982491" lon="104.3438005"><ele>564.94</ele><time>2026-05-20T17:49:04.000Z</time></trkpt>
        <trkpt lat="29.4983386" lon="104.3437899"><ele>561.27</ele><time>2026-05-20T17:49:20.000Z</time></trkpt>
        <trkpt lat="29.4983547" lon="104.3437056"><ele>557.35</ele><time>2026-05-20T17:49:40.000Z</time></trkpt>
        <trkpt lat="29.4983349" lon="104.3435964"><ele>554.52</ele><time>2026-05-20T17:50:26.000Z</time></trkpt>
        <trkpt lat="29.4983535" lon="104.3434854"><ele>552.42</ele><time>2026-05-20T17:50:34.000Z</time></trkpt>
        <trkpt lat="29.4983691" lon="104.3434428"><ele>551.02</ele><time>2026-05-20T17:50:42.000Z</time></trkpt>
        <trkpt lat="29.4984482" lon="104.3434258"><ele>550.24</ele><time>2026-05-20T17:51:08.000Z</time></trkpt>
        <trkpt lat="29.4985081" lon="104.343422"><ele>549.84</ele><time>2026-05-20T17:51:16.000Z</time></trkpt>
        <trkpt lat="29.4985925" lon="104.34343"><ele>549.7</ele><time>2026-05-20T17:51:30.000Z</time></trkpt>
        <trkpt lat="29.4986883" lon="104.3433949"><ele>550.41</ele><time>2026-05-20T17:51:44.000Z</time></trkpt>
        <trkpt lat="29.4987348" lon="104.3433734"><ele>551.11</ele><time>2026-05-20T17:51:52.000Z</time></trkpt>
        <trkpt lat="29.4987978" lon="104.3433222"><ele>551.58</ele><time>2026-05-20T17:52:04.000Z</time></trkpt>
        <trkpt lat="29.4988894" lon="104.3432765"><ele>548.63</ele><time>2026-05-20T17:52:22.000Z</time></trkpt>
        <trkpt lat="29.4989235" lon="104.3432591"><ele>550.03</ele><time>2026-05-20T17:52:24.000Z</time></trkpt>
        <trkpt lat="29.4990004" lon="104.3432509"><ele>550.87</ele><time>2026-05-20T17:52:38.000Z</time></trkpt>
        <trkpt lat="29.4990296" lon="104.3432522"><ele>551.94</ele><time>2026-05-20T17:52:40.000Z</time></trkpt>
        <trkpt lat="29.4990983" lon="104.3432796"><ele>552.57</ele><time>2026-05-20T17:53:02.000Z</time></trkpt>
        <trkpt lat="29.4991596" lon="104.3433025"><ele>553.64</ele><time>2026-05-20T17:53:08.000Z</time></trkpt>
        <trkpt lat="29.4992596" lon="104.3433067"><ele>554.31</ele><time>2026-05-20T17:53:20.000Z</time></trkpt>
        <trkpt lat="29.4993509" lon="104.343245"><ele>555.77</ele><time>2026-05-20T17:53:30.000Z</time></trkpt>
        <trkpt lat="29.4993733" lon="104.3431339"><ele>557.34</ele><time>2026-05-20T17:53:46.000Z</time></trkpt>
        <trkpt lat="29.4993809" lon="104.3430104"><ele>559.36</ele><time>2026-05-20T17:54:06.000Z</time></trkpt>
        <trkpt lat="29.4993477" lon="104.3428877"><ele>560.5</ele><time>2026-05-20T17:54:22.000Z</time></trkpt>
        <trkpt lat="29.4993569" lon="104.3427679"><ele>561.21</ele><time>2026-05-20T17:54:38.000Z</time></trkpt>
        <trkpt lat="29.4993846" lon="104.3427024"><ele>560.92</ele><time>2026-05-20T17:54:46.000Z</time></trkpt>
        <trkpt lat="29.4994483" lon="104.3426214"><ele>560.44</ele><time>2026-05-20T17:54:58.000Z</time></trkpt>
        <trkpt lat="29.4994784" lon="104.3425787"><ele>560.03</ele><time>2026-05-20T17:55:06.000Z</time></trkpt>
        <trkpt lat="29.4995443" lon="104.3425111"><ele>559.34</ele><time>2026-05-20T17:55:22.000Z</time></trkpt>
        <trkpt lat="29.4995882" lon="104.3424133"><ele>558.5</ele><time>2026-05-20T17:55:36.000Z</time></trkpt>
        <trkpt lat="29.4995406" lon="104.3423282"><ele>557.24</ele><time>2026-05-20T17:55:50.000Z</time></trkpt>
        <trkpt lat="29.4994781" lon="104.3422367"><ele>555.3</ele><time>2026-05-20T17:56:10.000Z</time></trkpt>
        <trkpt lat="29.4994503" lon="104.3422069"><ele>552.8</ele><time>2026-05-20T17:56:14.000Z</time></trkpt>
        <trkpt lat="29.4994234" lon="104.3421139"><ele>551.4</ele><time>2026-05-20T17:56:32.000Z</time></trkpt>
        <trkpt lat="29.4993734" lon="104.3420187"><ele>550.89</ele><time>2026-05-20T17:56:42.000Z</time></trkpt>
        <trkpt lat="29.4992976" lon="104.3419388"><ele>550.54</ele><time>2026-05-20T17:57:12.000Z</time></trkpt>
        <trkpt lat="29.499229" lon="104.3418522"><ele>550.09</ele><time>2026-05-20T17:57:28.000Z</time></trkpt>
        <trkpt lat="29.4991623" lon="104.341772"><ele>550.01</ele><time>2026-05-20T17:57:46.000Z</time></trkpt>
        <trkpt lat="29.499119" lon="104.3416758"><ele>549.53</ele><time>2026-05-20T17:58:06.000Z</time></trkpt>
        <trkpt lat="29.4990889" lon="104.3416014"><ele>548.8</ele><time>2026-05-20T17:58:12.000Z</time></trkpt>
        <trkpt lat="29.4991513" lon="104.341605"><ele>548.28</ele><time>2026-05-20T17:59:06.000Z</time></trkpt>
        <trkpt lat="29.4992458" lon="104.3415995"><ele>548.52</ele><time>2026-05-20T17:59:46.000Z</time></trkpt>
        <trkpt lat="29.4993326" lon="104.3416563"><ele>548.45</ele><time>2026-05-20T18:00:10.000Z</time></trkpt>
        <trkpt lat="29.4993994" lon="104.3417588"><ele>548.14</ele><time>2026-05-20T18:00:20.000Z</time></trkpt>
        <trkpt lat="29.499455" lon="104.34186"><ele>548.01</ele><time>2026-05-20T18:00:32.000Z</time></trkpt>
        <trkpt lat="29.4995129" lon="104.3419168"><ele>547.36</ele><time>2026-05-20T18:00:46.000Z</time></trkpt>
        <trkpt lat="29.4995297" lon="104.3418456"><ele>547.48</ele><time>2026-05-20T18:01:10.000Z</time></trkpt>
        <trkpt lat="29.4994843" lon="104.3417314"><ele>547.99</ele><time>2026-05-20T18:01:20.000Z</time></trkpt>
        <trkpt lat="29.4994843" lon="104.3415988"><ele>548.5</ele><time>2026-05-20T18:01:36.000Z</time></trkpt>
        <trkpt lat="29.4994525" lon="104.3414851"><ele>544.53</ele><time>2026-05-20T18:01:54.000Z</time></trkpt>
        <trkpt lat="29.4994432" lon="104.3413689"><ele>543.8</ele><time>2026-05-20T18:02:22.000Z</time></trkpt>
        <trkpt lat="29.4994495" lon="104.3412536"><ele>547.01</ele><time>2026-05-20T18:02:30.000Z</time></trkpt>
        <trkpt lat="29.4994871" lon="104.3411473"><ele>548.99</ele><time>2026-05-20T18:02:42.000Z</time></trkpt>
        <trkpt lat="29.4995109" lon="104.3410423"><ele>548</ele><time>2026-05-20T18:02:56.000Z</time></trkpt>
        <trkpt lat="29.4995013" lon="104.3409395"><ele>547.78</ele><time>2026-05-20T18:03:18.000Z</time></trkpt>
        <trkpt lat="29.4994319" lon="104.3408556"><ele>548.88</ele><time>2026-05-20T18:03:34.000Z</time></trkpt>
        <trkpt lat="29.4993338" lon="104.3408215"><ele>550.94</ele><time>2026-05-20T18:03:42.000Z</time></trkpt>
        <trkpt lat="29.4992385" lon="104.3408848"><ele>552.2</ele><time>2026-05-20T18:04:18.000Z</time></trkpt>
        <trkpt lat="29.4991407" lon="104.3409412"><ele>555.7</ele><time>2026-05-20T18:04:48.000Z</time></trkpt>
        <trkpt lat="29.4990542" lon="104.3410039"><ele>558.49</ele><time>2026-05-20T18:04:58.000Z</time></trkpt>
        <trkpt lat="29.4989689" lon="104.3409857"><ele>559.68</ele><time>2026-05-20T18:05:50.000Z</time></trkpt>
        <trkpt lat="29.4989166" lon="104.3409023"><ele>561.15</ele><time>2026-05-20T18:06:12.000Z</time></trkpt>
        <trkpt lat="29.4989249" lon="104.3407637"><ele>563.02</ele><time>2026-05-20T18:07:42.000Z</time></trkpt>
        <trkpt lat="29.4988681" lon="104.3406823"><ele>567.6</ele><time>2026-05-20T18:08:10.000Z</time></trkpt>
        <trkpt lat="29.4987999" lon="104.3406126"><ele>572.94</ele><time>2026-05-20T18:08:58.000Z</time></trkpt>
        <trkpt lat="29.4987095" lon="104.3405658"><ele>578.76</ele><time>2026-05-20T18:09:32.000Z</time></trkpt>
        <trkpt lat="29.4986039" lon="104.3405759"><ele>585.01</ele><time>2026-05-20T18:10:36.000Z</time></trkpt>
        <trkpt lat="29.4985155" lon="104.3405532"><ele>589.83</ele><time>2026-05-20T18:11:50.000Z</time></trkpt>
        <trkpt lat="29.4984315" lon="104.3405091"><ele>595.19</ele><time>2026-05-20T18:12:34.000Z</time></trkpt>
        <trkpt lat="29.4983574" lon="104.3404428"><ele>600.13</ele><time>2026-05-20T18:12:52.000Z</time></trkpt>
        <trkpt lat="29.4982745" lon="104.3403916"><ele>604.85</ele><time>2026-05-20T18:23:30.000Z</time></trkpt>
        <trkpt lat="29.4982199" lon="104.340294"><ele>608.02</ele><time>2026-05-20T18:24:18.000Z</time></trkpt>
        <trkpt lat="29.4981506" lon="104.3401811"><ele>608.96</ele><time>2026-05-20T18:24:32.000Z</time></trkpt>
        <trkpt lat="29.4980993" lon="104.340084"><ele>609.89</ele><time>2026-05-20T18:24:46.000Z</time></trkpt>
        <trkpt lat="29.4980685" lon="104.3399715"><ele>610.64</ele><time>2026-05-20T18:25:20.000Z</time></trkpt>
        <trkpt lat="29.4980155" lon="104.3398674"><ele>611.61</ele><time>2026-05-20T18:25:30.000Z</time></trkpt>
        <trkpt lat="29.4979922" lon="104.3397519"><ele>614.09</ele><time>2026-05-20T18:25:40.000Z</time></trkpt>
        <trkpt lat="29.4979881" lon="104.3396298"><ele>617.59</ele><time>2026-05-20T18:25:54.000Z</time></trkpt>
        <trkpt lat="29.4979968" lon="104.3395058"><ele>620.8</ele><time>2026-05-20T18:26:06.000Z</time></trkpt>
        <trkpt lat="29.4979923" lon="104.3393874"><ele>622.4</ele><time>2026-05-20T18:26:16.000Z</time></trkpt>
        <trkpt lat="29.4979833" lon="104.3392778"><ele>623.61</ele><time>2026-05-20T18:26:28.000Z</time></trkpt>
        <trkpt lat="29.4979531" lon="104.3391785"><ele>624.72</ele><time>2026-05-20T18:26:38.000Z</time></trkpt>
        <trkpt lat="29.4979359" lon="104.3390662"><ele>625.87</ele><time>2026-05-20T18:26:48.000Z</time></trkpt>
        <trkpt lat="29.4979098" lon="104.3389463"><ele>626.77</ele><time>2026-05-20T18:27:00.000Z</time></trkpt>
        <trkpt lat="29.497971" lon="104.3388945"><ele>627.71</ele><time>2026-05-20T18:27:12.000Z</time></trkpt>
        <trkpt lat="29.4980673" lon="104.3389033"><ele>629.39</ele><time>2026-05-20T18:27:48.000Z</time></trkpt>
        <trkpt lat="29.4981454" lon="104.3388541"><ele>629.83</ele><time>2026-05-20T18:28:04.000Z</time></trkpt>
        <trkpt lat="29.4982356" lon="104.3388257"><ele>630.81</ele><time>2026-05-20T18:28:22.000Z</time></trkpt>
        <trkpt lat="29.4983282" lon="104.3388504"><ele>632.29</ele><time>2026-05-20T18:28:38.000Z</time></trkpt>
        <trkpt lat="29.4984128" lon="104.3389013"><ele>634.02</ele><time>2026-05-20T18:29:00.000Z</time></trkpt>
        <trkpt lat="29.4985022" lon="104.3389286"><ele>636.16</ele><time>2026-05-20T18:29:28.000Z</time></trkpt>
        <trkpt lat="29.4985956" lon="104.3389227"><ele>638.77</ele><time>2026-05-20T18:29:43.000Z</time></trkpt>
        <trkpt lat="29.4986958" lon="104.3389175"><ele>641.49</ele><time>2026-05-20T18:29:57.000Z</time></trkpt>
        <trkpt lat="29.498798" lon="104.3389374"><ele>644.36</ele><time>2026-05-20T18:30:09.000Z</time></trkpt>
        <trkpt lat="29.4988878" lon="104.3389763"><ele>646.56</ele><time>2026-05-20T18:30:15.000Z</time></trkpt>
        <trkpt lat="29.4989765" lon="104.3390224"><ele>649.08</ele><time>2026-05-20T18:30:25.000Z</time></trkpt>
        <trkpt lat="29.4990471" lon="104.3390902"><ele>651.39</ele><time>2026-05-20T18:30:37.000Z</time></trkpt>
        <trkpt lat="29.4991339" lon="104.3391035"><ele>653.71</ele><time>2026-05-20T18:30:51.000Z</time></trkpt>
        <trkpt lat="29.4992326" lon="104.3390863"><ele>655.17</ele><time>2026-05-20T18:31:05.000Z</time></trkpt>
        <trkpt lat="29.4993268" lon="104.3390954"><ele>655.88</ele><time>2026-05-20T18:31:15.000Z</time></trkpt>
        <trkpt lat="29.499422" lon="104.339131"><ele>656.09</ele><time>2026-05-20T18:31:27.000Z</time></trkpt>
        <trkpt lat="29.4995144" lon="104.3391525"><ele>656.39</ele><time>2026-05-20T18:31:37.000Z</time></trkpt>
        <trkpt lat="29.4996126" lon="104.3391327"><ele>657.31</ele><time>2026-05-20T18:31:49.000Z</time></trkpt>
        <trkpt lat="29.4997077" lon="104.3390968"><ele>658.8</ele><time>2026-05-20T18:32:09.000Z</time></trkpt>
        <trkpt lat="29.4997796" lon="104.3390278"><ele>659.42</ele><time>2026-05-20T18:32:19.000Z</time></trkpt>
        <trkpt lat="29.499867" lon="104.3390062"><ele>659.4</ele><time>2026-05-20T18:32:47.000Z</time></trkpt>
        <trkpt lat="29.4999636" lon="104.3390008"><ele>660.76</ele><time>2026-05-20T18:33:01.000Z</time></trkpt>
        <trkpt lat="29.5000615" lon="104.3389765"><ele>662.36</ele><time>2026-05-20T18:33:17.000Z</time></trkpt>
        <trkpt lat="29.5001692" lon="104.3389475"><ele>660.56</ele><time>2026-05-20T18:33:35.000Z</time></trkpt>
        <trkpt lat="29.5002712" lon="104.3389219"><ele>660.9</ele><time>2026-05-20T18:33:53.000Z</time></trkpt>
        <trkpt lat="29.5003525" lon="104.3388643"><ele>665.57</ele><time>2026-05-20T18:34:07.000Z</time></trkpt>
        <trkpt lat="29.5004344" lon="104.338812"><ele>664.08</ele><time>2026-05-20T18:34:25.000Z</time></trkpt>
        <trkpt lat="29.5005237" lon="104.3387645"><ele>663.68</ele><time>2026-05-20T18:34:39.000Z</time></trkpt>
        <trkpt lat="29.5006119" lon="104.3387193"><ele>667.53</ele><time>2026-05-20T18:34:53.000Z</time></trkpt>
        <trkpt lat="29.5007051" lon="104.3386866"><ele>669.28</ele><time>2026-05-20T18:35:07.000Z</time></trkpt>
        <trkpt lat="29.5007908" lon="104.3386323"><ele>666.7</ele><time>2026-05-20T18:35:27.000Z</time></trkpt>
        <trkpt lat="29.500872" lon="104.3385511"><ele>666.25</ele><time>2026-05-20T18:35:47.000Z</time></trkpt>
        <trkpt lat="29.5009454" lon="104.3384745"><ele>666.31</ele><time>2026-05-20T18:36:07.000Z</time></trkpt>
        <trkpt lat="29.5009997" lon="104.338383"><ele>667.59</ele><time>2026-05-20T18:37:03.000Z</time></trkpt>
        <trkpt lat="29.5010514" lon="104.3382756"><ele>671.26</ele><time>2026-05-20T18:37:15.000Z</time></trkpt>
        <trkpt lat="29.5010929" lon="104.3381671"><ele>669.23</ele><time>2026-05-20T18:37:27.000Z</time></trkpt>
        <trkpt lat="29.5010707" lon="104.3380542"><ele>671.11</ele><time>2026-05-20T18:37:35.000Z</time></trkpt>
        <trkpt lat="29.5010451" lon="104.337933"><ele>672.56</ele><time>2026-05-20T18:37:47.000Z</time></trkpt>
        <trkpt lat="29.5010041" lon="104.3378132"><ele>672.71</ele><time>2026-05-20T18:37:59.000Z</time></trkpt>
        <trkpt lat="29.5009735" lon="104.3376759"><ele>672.63</ele><time>2026-05-20T18:38:09.000Z</time></trkpt>
        <trkpt lat="29.5009741" lon="104.3375541"><ele>672.47</ele><time>2026-05-20T18:38:19.000Z</time></trkpt>
        <trkpt lat="29.5009687" lon="104.3374411"><ele>672.96</ele><time>2026-05-20T18:38:29.000Z</time></trkpt>
        <trkpt lat="29.5009701" lon="104.3373262"><ele>673.11</ele><time>2026-05-20T18:38:39.000Z</time></trkpt>
        <trkpt lat="29.5009679" lon="104.3372119"><ele>677.07</ele><time>2026-05-20T18:38:57.000Z</time></trkpt>
        <trkpt lat="29.5009449" lon="104.3371086"><ele>679.89</ele><time>2026-05-20T18:39:07.000Z</time></trkpt>
        <trkpt lat="29.5009116" lon="104.3370112"><ele>682.09</ele><time>2026-05-20T18:39:17.000Z</time></trkpt>
        <trkpt lat="29.5009248" lon="104.3369101"><ele>680.43</ele><time>2026-05-20T18:39:27.000Z</time></trkpt>
        <trkpt lat="29.5009965" lon="104.3368283"><ele>677.96</ele><time>2026-05-20T18:39:37.000Z</time></trkpt>
        <trkpt lat="29.5010795" lon="104.3367495"><ele>680.31</ele><time>2026-05-20T18:39:47.000Z</time></trkpt>
        <trkpt lat="29.5011477" lon="104.3366534"><ele>679.9</ele><time>2026-05-20T18:39:59.000Z</time></trkpt>
        <trkpt lat="29.5012069" lon="104.3365594"><ele>681.27</ele><time>2026-05-20T18:40:11.000Z</time></trkpt>
        <trkpt lat="29.5012606" lon="104.3364739"><ele>681.74</ele><time>2026-05-20T18:40:23.000Z</time></trkpt>
        <trkpt lat="29.5013459" lon="104.336423"><ele>680.79</ele><time>2026-05-20T18:40:41.000Z</time></trkpt>
        <trkpt lat="29.5014129" lon="104.3363981"><ele>680.45</ele><time>2026-05-20T18:40:47.000Z</time></trkpt>
        <trkpt lat="29.5015027" lon="104.3363818"><ele>680.4</ele><time>2026-05-20T18:40:57.000Z</time></trkpt>
        <trkpt lat="29.5015955" lon="104.3363837"><ele>680.46</ele><time>2026-05-20T18:41:05.000Z</time></trkpt>
        <trkpt lat="29.5016926" lon="104.3363867"><ele>681.37</ele><time>2026-05-20T18:41:17.000Z</time></trkpt>
        <trkpt lat="29.5017848" lon="104.3364049"><ele>682.1</ele><time>2026-05-20T18:41:35.000Z</time></trkpt>
        <trkpt lat="29.501879" lon="104.3364272"><ele>682.58</ele><time>2026-05-20T18:41:47.000Z</time></trkpt>
        <trkpt lat="29.5019859" lon="104.3364205"><ele>683.33</ele><time>2026-05-20T18:41:55.000Z</time></trkpt>
        <trkpt lat="29.5020814" lon="104.336438"><ele>683.32</ele><time>2026-05-20T18:42:05.000Z</time></trkpt>
        <trkpt lat="29.5021898" lon="104.3364587"><ele>683.36</ele><time>2026-05-20T18:42:13.000Z</time></trkpt>
        <trkpt lat="29.5022435" lon="104.3364716"><ele>685.38</ele><time>2026-05-20T18:42:17.000Z</time></trkpt>
        <trkpt lat="29.5023262" lon="104.3364927"><ele>686.87</ele><time>2026-05-20T18:42:31.000Z</time></trkpt>
        <trkpt lat="29.5024293" lon="104.3365035"><ele>688.32</ele><time>2026-05-20T18:42:45.000Z</time></trkpt>
        <trkpt lat="29.5025247" lon="104.336535"><ele>689.53</ele><time>2026-05-20T18:42:57.000Z</time></trkpt>
        <trkpt lat="29.5026144" lon="104.3365825"><ele>690.06</ele><time>2026-05-20T18:43:33.000Z</time></trkpt>
        <trkpt lat="29.502697" lon="104.336646"><ele>690.21</ele><time>2026-05-20T18:43:43.000Z</time></trkpt>
        <trkpt lat="29.5027667" lon="104.3367221"><ele>690.67</ele><time>2026-05-20T18:43:57.000Z</time></trkpt>
        <trkpt lat="29.5027043" lon="104.3367037"><ele>691.4</ele><time>2026-05-20T18:44:33.000Z</time></trkpt>
        <trkpt lat="29.5026032" lon="104.3366356"><ele>690.9</ele><time>2026-05-20T18:44:43.000Z</time></trkpt>
        <trkpt lat="29.5024992" lon="104.3365832"><ele>685.9</ele><time>2026-05-20T18:44:53.000Z</time></trkpt>
        <trkpt lat="29.5023993" lon="104.3365438"><ele>685.14</ele><time>2026-05-20T18:45:19.000Z</time></trkpt>
        <trkpt lat="29.5023061" lon="104.3365063"><ele>686.78</ele><time>2026-05-20T18:45:41.000Z</time></trkpt>
        <trkpt lat="29.5022057" lon="104.336495"><ele>688.29</ele><time>2026-05-20T18:45:49.000Z</time></trkpt>
        <trkpt lat="29.5021043" lon="104.3364669"><ele>689.39</ele><time>2026-05-20T18:46:01.000Z</time></trkpt>
        <trkpt lat="29.5020034" lon="104.3364367"><ele>687.5</ele><time>2026-05-20T18:46:13.000Z</time></trkpt>
        <trkpt lat="29.5019036" lon="104.3364313"><ele>687.91</ele><time>2026-05-20T18:46:23.000Z</time></trkpt>
        <trkpt lat="29.5018011" lon="104.3364262"><ele>687.88</ele><time>2026-05-20T18:46:31.000Z</time></trkpt>
        <trkpt lat="29.5016987" lon="104.3364217"><ele>687.17</ele><time>2026-05-20T18:46:41.000Z</time></trkpt>
        <trkpt lat="29.5017395" lon="104.3364001"><ele>686.15</ele><time>2026-05-20T18:47:05.000Z</time></trkpt>
        <trkpt lat="29.5018353" lon="104.3363711"><ele>683.57</ele><time>2026-05-20T18:47:13.000Z</time></trkpt>
        <trkpt lat="29.5019587" lon="104.3363595"><ele>682.35</ele><time>2026-05-20T18:47:23.000Z</time></trkpt>
        <trkpt lat="29.5020518" lon="104.3362959"><ele>681.55</ele><time>2026-05-20T18:47:49.000Z</time></trkpt>
        <trkpt lat="29.5020237" lon="104.3362179"><ele>684.98</ele><time>2026-05-20T18:48:25.000Z</time></trkpt>
        <trkpt lat="29.5019578" lon="104.3361189"><ele>685.98</ele><time>2026-05-20T18:48:35.000Z</time></trkpt>
        <trkpt lat="29.5019073" lon="104.3359967"><ele>686.31</ele><time>2026-05-20T18:48:47.000Z</time></trkpt>
        <trkpt lat="29.5018259" lon="104.3359186"><ele>687.46</ele><time>2026-05-20T18:49:11.000Z</time></trkpt>
        <trkpt lat="29.5017393" lon="104.3358428"><ele>689.05</ele><time>2026-05-20T18:49:23.000Z</time></trkpt>
        <trkpt lat="29.5016808" lon="104.3357498"><ele>691.14</ele><time>2026-05-20T18:49:31.000Z</time></trkpt>
        <trkpt lat="29.50165" lon="104.3356395"><ele>691.41</ele><time>2026-05-20T18:49:43.000Z</time></trkpt>
        <trkpt lat="29.5016513" lon="104.3355295"><ele>691.31</ele><time>2026-05-20T18:49:55.000Z</time></trkpt>
        <trkpt lat="29.5016907" lon="104.3354326"><ele>691.95</ele><time>2026-05-20T18:50:05.000Z</time></trkpt>
        <trkpt lat="29.5017551" lon="104.3353511"><ele>693.11</ele><time>2026-05-20T18:50:17.000Z</time></trkpt>
        <trkpt lat="29.5018377" lon="104.3352922"><ele>694.38</ele><time>2026-05-20T18:50:27.000Z</time></trkpt>
        <trkpt lat="29.5019329" lon="104.3352371"><ele>696.28</ele><time>2026-05-20T18:50:47.000Z</time></trkpt>
        <trkpt lat="29.5020089" lon="104.3351642"><ele>697.29</ele><time>2026-05-20T18:51:03.000Z</time></trkpt>
        <trkpt lat="29.5020613" lon="104.3350596"><ele>697.46</ele><time>2026-05-20T18:51:19.000Z</time></trkpt>
        <trkpt lat="29.5021217" lon="104.3349644"><ele>697.6</ele><time>2026-05-20T18:52:01.000Z</time></trkpt>
        <trkpt lat="29.5021646" lon="104.3348673"><ele>697.4</ele><time>2026-05-20T18:52:25.000Z</time></trkpt>
        <trkpt lat="29.5022108" lon="104.3347731"><ele>697.18</ele><time>2026-05-20T18:52:53.000Z</time></trkpt>
        <trkpt lat="29.5022482" lon="104.3346753"><ele>696.53</ele><time>2026-05-20T18:53:03.000Z</time></trkpt>
        <trkpt lat="29.5023175" lon="104.3346044"><ele>696.02</ele><time>2026-05-20T18:53:13.000Z</time></trkpt>
        <trkpt lat="29.5023572" lon="104.3344966"><ele>695.94</ele><time>2026-05-20T18:53:25.000Z</time></trkpt>
        <trkpt lat="29.5023891" lon="104.33439"><ele>695.28</ele><time>2026-05-20T18:53:41.000Z</time></trkpt>
        <trkpt lat="29.5024476" lon="104.3343036"><ele>695.23</ele><time>2026-05-20T18:54:13.000Z</time></trkpt>
        <trkpt lat="29.5025385" lon="104.3342719"><ele>695.14</ele><time>2026-05-20T18:54:25.000Z</time></trkpt>
        <trkpt lat="29.502642" lon="104.334264"><ele>695.75</ele><time>2026-05-20T18:54:39.000Z</time></trkpt>
        <trkpt lat="29.5027513" lon="104.3342573"><ele>696.76</ele><time>2026-05-20T18:55:15.000Z</time></trkpt>
        <trkpt lat="29.5028565" lon="104.3342836"><ele>698.66</ele><time>2026-05-20T18:55:25.000Z</time></trkpt>
        <trkpt lat="29.5029512" lon="104.3342993"><ele>699.84</ele><time>2026-05-20T18:55:35.000Z</time></trkpt>
        <trkpt lat="29.5030544" lon="104.334287"><ele>700.64</ele><time>2026-05-20T18:55:47.000Z</time></trkpt>
        <trkpt lat="29.5031504" lon="104.3342665"><ele>702.33</ele><time>2026-05-20T18:55:57.000Z</time></trkpt>
        <trkpt lat="29.5032498" lon="104.3342424"><ele>704.56</ele><time>2026-05-20T18:56:15.000Z</time></trkpt>
        <trkpt lat="29.5033475" lon="104.3342223"><ele>707.58</ele><time>2026-05-20T18:56:27.000Z</time></trkpt>
        <trkpt lat="29.5034362" lon="104.334175"><ele>711.17</ele><time>2026-05-20T18:56:53.000Z</time></trkpt>
        <trkpt lat="29.5035335" lon="104.3341417"><ele>712.68</ele><time>2026-05-20T18:57:33.000Z</time></trkpt>
        <trkpt lat="29.5036325" lon="104.3340999"><ele>714.09</ele><time>2026-05-20T18:57:57.000Z</time></trkpt>
        <trkpt lat="29.5037301" lon="104.3340999"><ele>714.51</ele><time>2026-05-20T18:58:15.000Z</time></trkpt>
        <trkpt lat="29.503824" lon="104.3341227"><ele>714.44</ele><time>2026-05-20T18:58:25.000Z</time></trkpt>
        <trkpt lat="29.5039153" lon="104.3341449"><ele>714.85</ele><time>2026-05-20T18:58:35.000Z</time></trkpt>
        <trkpt lat="29.5040019" lon="104.3341781"><ele>715.95</ele><time>2026-05-20T18:58:45.000Z</time></trkpt>
        <trkpt lat="29.5040883" lon="104.3342198"><ele>717.19</ele><time>2026-05-20T18:58:53.000Z</time></trkpt>
        <trkpt lat="29.5041752" lon="104.3342852"><ele>719.75</ele><time>2026-05-20T18:59:05.000Z</time></trkpt>
        <trkpt lat="29.5042403" lon="104.3343815"><ele>722.28</ele><time>2026-05-20T18:59:19.000Z</time></trkpt>
        <trkpt lat="29.5042733" lon="104.3344876"><ele>727.38</ele><time>2026-05-20T18:59:29.000Z</time></trkpt>
        <trkpt lat="29.5042827" lon="104.3346105"><ele>729.32</ele><time>2026-05-20T18:59:41.000Z</time></trkpt>
        <trkpt lat="29.5043364" lon="104.3347042"><ele>729.97</ele><time>2026-05-20T18:59:57.000Z</time></trkpt>
        <trkpt lat="29.5044247" lon="104.3347594"><ele>732.43</ele><time>2026-05-20T19:00:11.000Z</time></trkpt>
        <trkpt lat="29.5045142" lon="104.3348152"><ele>735.03</ele><time>2026-05-20T19:00:21.000Z</time></trkpt>
        <trkpt lat="29.5045971" lon="104.3348873"><ele>737.52</ele><time>2026-05-20T19:00:33.000Z</time></trkpt>
        <trkpt lat="29.5046778" lon="104.3349557"><ele>740.68</ele><time>2026-05-20T19:00:45.000Z</time></trkpt>
        <trkpt lat="29.5047512" lon="104.3349064"><ele>743.34</ele><time>2026-05-20T19:01:03.000Z</time></trkpt>
        <trkpt lat="29.5048067" lon="104.3348161"><ele>745.68</ele><time>2026-05-20T19:01:13.000Z</time></trkpt>
        <trkpt lat="29.504874" lon="104.3347251"><ele>746.7</ele><time>2026-05-20T19:01:25.000Z</time></trkpt>
        <trkpt lat="29.5049474" lon="104.3346473"><ele>744.51</ele><time>2026-05-20T19:01:35.000Z</time></trkpt>
        <trkpt lat="29.5050329" lon="104.3345863"><ele>742.51</ele><time>2026-05-20T19:01:47.000Z</time></trkpt>
        <trkpt lat="29.5051307" lon="104.3346156"><ele>741.18</ele><time>2026-05-20T19:01:59.000Z</time></trkpt>
        <trkpt lat="29.5052063" lon="104.3347037"><ele>742.73</ele><time>2026-05-20T19:02:09.000Z</time></trkpt>
        <trkpt lat="29.5052749" lon="104.3348088"><ele>742.78</ele><time>2026-05-20T19:02:17.000Z</time></trkpt>
        <trkpt lat="29.5053367" lon="104.3349077"><ele>742.33</ele><time>2026-05-20T19:02:25.000Z</time></trkpt>
        <trkpt lat="29.505412" lon="104.3349939"><ele>741.99</ele><time>2026-05-20T19:02:33.000Z</time></trkpt>
        <trkpt lat="29.5054775" lon="104.335083"><ele>738.58</ele><time>2026-05-20T19:02:47.000Z</time></trkpt>
        <trkpt lat="29.5055683" lon="104.3351255"><ele>735.9</ele><time>2026-05-20T19:03:03.000Z</time></trkpt>
        <trkpt lat="29.5056669" lon="104.3350992"><ele>735.72</ele><time>2026-05-20T19:03:13.000Z</time></trkpt>
        <trkpt lat="29.5057539" lon="104.33503"><ele>735.35</ele><time>2026-05-20T19:03:25.000Z</time></trkpt>
        <trkpt lat="29.5057983" lon="104.3349257"><ele>734.91</ele><time>2026-05-20T19:03:35.000Z</time></trkpt>
        <trkpt lat="29.5058298" lon="104.334803"><ele>734.16</ele><time>2026-05-20T19:03:47.000Z</time></trkpt>
        <trkpt lat="29.5058633" lon="104.3346901"><ele>732.85</ele><time>2026-05-20T19:03:59.000Z</time></trkpt>
        <trkpt lat="29.5058773" lon="104.3345756"><ele>732.7</ele><time>2026-05-20T19:04:13.000Z</time></trkpt>
        <trkpt lat="29.5058917" lon="104.3344661"><ele>732.66</ele><time>2026-05-20T19:04:23.000Z</time></trkpt>
        <trkpt lat="29.5059459" lon="104.3343849"><ele>732.7</ele><time>2026-05-20T19:04:33.000Z</time></trkpt>
        <trkpt lat="29.506015" lon="104.3343039"><ele>733.23</ele><time>2026-05-20T19:04:45.000Z</time></trkpt>
        <trkpt lat="29.50607" lon="104.3342026"><ele>734.23</ele><time>2026-05-20T19:04:57.000Z</time></trkpt>
        <trkpt lat="29.5061032" lon="104.3340938"><ele>735.09</ele><time>2026-05-20T19:05:11.000Z</time></trkpt>
        <trkpt lat="29.5061538" lon="104.3339997"><ele>735.74</ele><time>2026-05-20T19:05:21.000Z</time></trkpt>
        <trkpt lat="29.5062209" lon="104.3339118"><ele>736.95</ele><time>2026-05-20T19:05:35.000Z</time></trkpt>
        <trkpt lat="29.5062709" lon="104.3338213"><ele>737.63</ele><time>2026-05-20T19:05:49.000Z</time></trkpt>
        <trkpt lat="29.506355" lon="104.3338286"><ele>738.31</ele><time>2026-05-20T19:06:03.000Z</time></trkpt>
        <trkpt lat="29.5064212" lon="104.3339055"><ele>739.66</ele><time>2026-05-20T19:06:13.000Z</time></trkpt>
        <trkpt lat="29.5064671" lon="104.3340189"><ele>740.79</ele><time>2026-05-20T19:06:23.000Z</time></trkpt>
        <trkpt lat="29.5065137" lon="104.3341376"><ele>741.25</ele><time>2026-05-20T19:06:31.000Z</time></trkpt>
        <trkpt lat="29.5065739" lon="104.3342335"><ele>741.89</ele><time>2026-05-20T19:06:39.000Z</time></trkpt>
        <trkpt lat="29.5066798" lon="104.334245"><ele>742.62</ele><time>2026-05-20T19:06:49.000Z</time></trkpt>
        <trkpt lat="29.5067697" lon="104.3341916"><ele>743.35</ele><time>2026-05-20T19:06:59.000Z</time></trkpt>
        <trkpt lat="29.5068523" lon="104.3341207"><ele>744.62</ele><time>2026-05-20T19:07:11.000Z</time></trkpt>
        <trkpt lat="29.5069313" lon="104.3340514"><ele>745.51</ele><time>2026-05-20T19:07:23.000Z</time></trkpt>
        <trkpt lat="29.5070088" lon="104.3340789"><ele>746.35</ele><time>2026-05-20T19:07:37.000Z</time></trkpt>
        <trkpt lat="29.5070705" lon="104.3341653"><ele>746.88</ele><time>2026-05-20T19:07:49.000Z</time></trkpt>
        <trkpt lat="29.5071796" lon="104.3341823"><ele>747.74</ele><time>2026-05-20T19:08:01.000Z</time></trkpt>
        <trkpt lat="29.5072785" lon="104.3342081"><ele>751.23</ele><time>2026-05-20T19:09:31.000Z</time></trkpt>
        <trkpt lat="29.5073667" lon="104.3342588"><ele>753.09</ele><time>2026-05-20T19:09:37.000Z</time></trkpt>
        <trkpt lat="29.5074435" lon="104.3343291"><ele>754.08</ele><time>2026-05-20T19:09:47.000Z</time></trkpt>
        <trkpt lat="29.5075237" lon="104.3343929"><ele>755.3</ele><time>2026-05-20T19:09:59.000Z</time></trkpt>
        <trkpt lat="29.5076125" lon="104.3343714"><ele>756.9</ele><time>2026-05-20T19:10:11.000Z</time></trkpt>
        <trkpt lat="29.5076749" lon="104.3342856"><ele>758.52</ele><time>2026-05-20T19:10:23.000Z</time></trkpt>
        <trkpt lat="29.5077365" lon="104.3341953"><ele>760.1</ele><time>2026-05-20T19:10:35.000Z</time></trkpt>
        <trkpt lat="29.5078219" lon="104.334158"><ele>761.45</ele><time>2026-05-20T19:10:49.000Z</time></trkpt>
        <trkpt lat="29.5079101" lon="104.3341919"><ele>762.48</ele><time>2026-05-20T19:10:59.000Z</time></trkpt>
        <trkpt lat="29.5080112" lon="104.3342343"><ele>762.77</ele><time>2026-05-20T19:11:07.000Z</time></trkpt>
        <trkpt lat="29.5081073" lon="104.3342759"><ele>763.78</ele><time>2026-05-20T19:11:15.000Z</time></trkpt>
        <trkpt lat="29.5082042" lon="104.3343125"><ele>765.03</ele><time>2026-05-20T19:11:29.000Z</time></trkpt>
        <trkpt lat="29.5082863" lon="104.3342722"><ele>765.09</ele><time>2026-05-20T19:11:39.000Z</time></trkpt>
        <trkpt lat="29.5083797" lon="104.3342639"><ele>764.55</ele><time>2026-05-20T19:11:51.000Z</time></trkpt>
        <trkpt lat="29.5084637" lon="104.3343201"><ele>764.87</ele><time>2026-05-20T19:12:03.000Z</time></trkpt>
        <trkpt lat="29.5085528" lon="104.3343347"><ele>764.15</ele><time>2026-05-20T19:12:11.000Z</time></trkpt>
        <trkpt lat="29.5086281" lon="104.334388"><ele>763.37</ele><time>2026-05-20T19:12:45.000Z</time></trkpt>
        <trkpt lat="29.5087119" lon="104.3344241"><ele>767.82</ele><time>2026-05-20T19:14:03.000Z</time></trkpt>
        <trkpt lat="29.5087869" lon="104.3344955"><ele>772.87</ele><time>2026-05-20T19:15:25.000Z</time></trkpt>
        <trkpt lat="29.5088227" lon="104.3345952"><ele>776.54</ele><time>2026-05-20T19:16:27.000Z</time></trkpt>
        <trkpt lat="29.508857" lon="104.3346926"><ele>779.21</ele><time>2026-05-20T19:16:37.000Z</time></trkpt>
        <trkpt lat="29.5089167" lon="104.3347821"><ele>780.62</ele><time>2026-05-20T19:16:45.000Z</time></trkpt>
        <trkpt lat="29.5089681" lon="104.3348854"><ele>781.25</ele><time>2026-05-20T19:16:55.000Z</time></trkpt>
        <trkpt lat="29.5089731" lon="104.334998"><ele>781.22</ele><time>2026-05-20T19:17:09.000Z</time></trkpt>
        <trkpt lat="29.5089316" lon="104.3351014"><ele>779.83</ele><time>2026-05-20T19:17:23.000Z</time></trkpt>
        <trkpt lat="29.5088425" lon="104.3351627"><ele>778.02</ele><time>2026-05-20T19:17:37.000Z</time></trkpt>
        <trkpt lat="29.508739" lon="104.3352104"><ele>776.68</ele><time>2026-05-20T19:17:47.000Z</time></trkpt>
        <trkpt lat="29.5086513" lon="104.3352712"><ele>776.76</ele><time>2026-05-20T19:17:59.000Z</time></trkpt>
        <trkpt lat="29.5085754" lon="104.3353362"><ele>777.25</ele><time>2026-05-20T19:18:11.000Z</time></trkpt>
        <trkpt lat="29.5085178" lon="104.3354225"><ele>779.12</ele><time>2026-05-20T19:18:27.000Z</time></trkpt>
        <trkpt lat="29.5085438" lon="104.3355261"><ele>781.15</ele><time>2026-05-20T19:18:45.000Z</time></trkpt>
        <trkpt lat="29.5086388" lon="104.3355682"><ele>783.56</ele><time>2026-05-20T19:18:57.000Z</time></trkpt>
        <trkpt lat="29.5087543" lon="104.3355935"><ele>784.2</ele><time>2026-05-20T19:19:11.000Z</time></trkpt>
        <trkpt lat="29.5088486" lon="104.3356417"><ele>783.71</ele><time>2026-05-20T19:19:23.000Z</time></trkpt>
        <trkpt lat="29.5089234" lon="104.3357108"><ele>782.09</ele><time>2026-05-20T19:19:33.000Z</time></trkpt>
        <trkpt lat="29.5089951" lon="104.3358131"><ele>780.71</ele><time>2026-05-20T19:19:43.000Z</time></trkpt>
        <trkpt lat="29.509045" lon="104.3359178"><ele>775.91</ele><time>2026-05-20T19:19:51.000Z</time></trkpt>
        <trkpt lat="29.5090703" lon="104.336023"><ele>772.09</ele><time>2026-05-20T19:20:03.000Z</time></trkpt>
        <trkpt lat="29.5090601" lon="104.3361439"><ele>770.41</ele><time>2026-05-20T19:20:15.000Z</time></trkpt>
        <trkpt lat="29.5090601" lon="104.336262"><ele>769.29</ele><time>2026-05-20T19:20:23.000Z</time></trkpt>
        <trkpt lat="29.509034" lon="104.3363662"><ele>768.58</ele><time>2026-05-20T19:20:31.000Z</time></trkpt>
        <trkpt lat="29.5089713" lon="104.3364704"><ele>768.31</ele><time>2026-05-20T19:20:43.000Z</time></trkpt>
        <trkpt lat="29.5089015" lon="104.336571"><ele>767.46</ele><time>2026-05-20T19:20:55.000Z</time></trkpt>
        <trkpt lat="29.5088051" lon="104.3366122"><ele>767.2</ele><time>2026-05-20T19:21:03.000Z</time></trkpt>
        <trkpt lat="29.508705" lon="104.3366227"><ele>766.42</ele><time>2026-05-20T19:21:09.000Z</time></trkpt>
        <trkpt lat="29.5086099" lon="104.3366421"><ele>766.26</ele><time>2026-05-20T19:21:29.000Z</time></trkpt>
        <trkpt lat="29.5085285" lon="104.3367073"><ele>766.75</ele><time>2026-05-20T19:21:41.000Z</time></trkpt>
        <trkpt lat="29.5084721" lon="104.3368069"><ele>768.24</ele><time>2026-05-20T19:21:53.000Z</time></trkpt>
        <trkpt lat="29.508481" lon="104.3369236"><ele>769.63</ele><time>2026-05-20T19:22:05.000Z</time></trkpt>
        <trkpt lat="29.5085234" lon="104.3370442"><ele>772.17</ele><time>2026-05-20T19:22:19.000Z</time></trkpt>
        <trkpt lat="29.5085404" lon="104.3371592"><ele>773.53</ele><time>2026-05-20T19:22:27.000Z</time></trkpt>
        <trkpt lat="29.5084972" lon="104.3372515"><ele>774.39</ele><time>2026-05-20T19:22:35.000Z</time></trkpt>
        <trkpt lat="29.5084179" lon="104.3373307"><ele>774.96</ele><time>2026-05-20T19:22:45.000Z</time></trkpt>
        <trkpt lat="29.5083344" lon="104.3374058"><ele>771.01</ele><time>2026-05-20T19:22:57.000Z</time></trkpt>
        <trkpt lat="29.508317" lon="104.3375225"><ele>768.66</ele><time>2026-05-20T19:23:07.000Z</time></trkpt>
        <trkpt lat="29.5083468" lon="104.3376365"><ele>770.87</ele><time>2026-05-20T19:23:17.000Z</time></trkpt>
        <trkpt lat="29.5083895" lon="104.3377585"><ele>772.27</ele><time>2026-05-20T19:23:29.000Z</time></trkpt>
        <trkpt lat="29.5084488" lon="104.3378641"><ele>769.16</ele><time>2026-05-20T19:23:39.000Z</time></trkpt>
        <trkpt lat="29.5085003" lon="104.3379608"><ele>766.76</ele><time>2026-05-20T19:23:49.000Z</time></trkpt>
        <trkpt lat="29.5085321" lon="104.3380722"><ele>765.15</ele><time>2026-05-20T19:23:59.000Z</time></trkpt>
        <trkpt lat="29.5085016" lon="104.3381822"><ele>762.57</ele><time>2026-05-20T19:24:15.000Z</time></trkpt>
        <trkpt lat="29.5084465" lon="104.3382896"><ele>763.46</ele><time>2026-05-20T19:24:25.000Z</time></trkpt>
        <trkpt lat="29.5083883" lon="104.3383916"><ele>763.73</ele><time>2026-05-20T19:24:39.000Z</time></trkpt>
        <trkpt lat="29.5083389" lon="104.3384889"><ele>761.79</ele><time>2026-05-20T19:24:47.000Z</time></trkpt>
        <trkpt lat="29.5083059" lon="104.3385921"><ele>759.98</ele><time>2026-05-20T19:24:57.000Z</time></trkpt>
        <trkpt lat="29.5082833" lon="104.3387012"><ele>758.78</ele><time>2026-05-20T19:25:11.000Z</time></trkpt>
        <trkpt lat="29.5082821" lon="104.338822"><ele>757.38</ele><time>2026-05-20T19:25:25.000Z</time></trkpt>
        <trkpt lat="29.5082616" lon="104.3389374"><ele>755.35</ele><time>2026-05-20T19:25:35.000Z</time></trkpt>
        <trkpt lat="29.5082274" lon="104.3390494"><ele>753.72</ele><time>2026-05-20T19:25:43.000Z</time></trkpt>
        <trkpt lat="29.5081639" lon="104.3391549"><ele>752.27</ele><time>2026-05-20T19:25:53.000Z</time></trkpt>
        <trkpt lat="29.5080745" lon="104.339253"><ele>750.88</ele><time>2026-05-20T19:26:05.000Z</time></trkpt>
        <trkpt lat="29.5079847" lon="104.3393121"><ele>749.73</ele><time>2026-05-20T19:26:13.000Z</time></trkpt>
        <trkpt lat="29.5078869" lon="104.3393622"><ele>748.91</ele><time>2026-05-20T19:26:21.000Z</time></trkpt>
        <trkpt lat="29.5077888" lon="104.3393963"><ele>751.61</ele><time>2026-05-20T19:26:31.000Z</time></trkpt>
        <trkpt lat="29.5076982" lon="104.3394471"><ele>751.7</ele><time>2026-05-20T19:26:39.000Z</time></trkpt>
        <trkpt lat="29.5076521" lon="104.3395497"><ele>752.64</ele><time>2026-05-20T19:26:49.000Z</time></trkpt>
        <trkpt lat="29.5076405" lon="104.3396735"><ele>754.39</ele><time>2026-05-20T19:26:59.000Z</time></trkpt>
        <trkpt lat="29.5076468" lon="104.3398012"><ele>755.76</ele><time>2026-05-20T19:27:09.000Z</time></trkpt>
        <trkpt lat="29.5076886" lon="104.3399061"><ele>755.43</ele><time>2026-05-20T19:27:19.000Z</time></trkpt>
        <trkpt lat="29.5077628" lon="104.3399907"><ele>755.54</ele><time>2026-05-20T19:27:35.000Z</time></trkpt>
        <trkpt lat="29.5078479" lon="104.3400581"><ele>755.31</ele><time>2026-05-20T19:27:45.000Z</time></trkpt>
        <trkpt lat="29.5079529" lon="104.3401351"><ele>754.15</ele><time>2026-05-20T19:27:55.000Z</time></trkpt>
        <trkpt lat="29.5080417" lon="104.340225"><ele>753.1</ele><time>2026-05-20T19:28:01.000Z</time></trkpt>
        <trkpt lat="29.5080846" lon="104.3403435"><ele>752.23</ele><time>2026-05-20T19:28:11.000Z</time></trkpt>
        <trkpt lat="29.5081096" lon="104.3404586"><ele>753.64</ele><time>2026-05-20T19:28:19.000Z</time></trkpt>
        <trkpt lat="29.5081605" lon="104.3405495"><ele>753.92</ele><time>2026-05-20T19:28:27.000Z</time></trkpt>
        <trkpt lat="29.508209" lon="104.3406428"><ele>754.63</ele><time>2026-05-20T19:28:37.000Z</time></trkpt>
        <trkpt lat="29.5082783" lon="104.3407302"><ele>756.49</ele><time>2026-05-20T19:28:47.000Z</time></trkpt>
        <trkpt lat="29.5083558" lon="104.3408077"><ele>757.19</ele><time>2026-05-20T19:28:59.000Z</time></trkpt>
        <trkpt lat="29.5084049" lon="104.3409056"><ele>756.72</ele><time>2026-05-20T19:29:09.000Z</time></trkpt>
        <trkpt lat="29.5083837" lon="104.3410044"><ele>755.98</ele><time>2026-05-20T19:29:19.000Z</time></trkpt>
        <trkpt lat="29.508307" lon="104.3410828"><ele>754.64</ele><time>2026-05-20T19:29:27.000Z</time></trkpt>
        <trkpt lat="29.5082197" lon="104.341152"><ele>753.63</ele><time>2026-05-20T19:29:37.000Z</time></trkpt>
        <trkpt lat="29.5081514" lon="104.3412432"><ele>751.87</ele><time>2026-05-20T19:29:47.000Z</time></trkpt>
        <trkpt lat="29.5081252" lon="104.3413554"><ele>749.82</ele><time>2026-05-20T19:29:57.000Z</time></trkpt>
        <trkpt lat="29.5081458" lon="104.3414725"><ele>747.49</ele><time>2026-05-20T19:30:05.000Z</time></trkpt>
        <trkpt lat="29.5081919" lon="104.3415804"><ele>747.83</ele><time>2026-05-20T19:30:13.000Z</time></trkpt>
        <trkpt lat="29.5082609" lon="104.3416622"><ele>747.61</ele><time>2026-05-20T19:30:25.000Z</time></trkpt>
        <trkpt lat="29.5083405" lon="104.3417233"><ele>746.45</ele><time>2026-05-20T19:30:35.000Z</time></trkpt>
        <trkpt lat="29.5084303" lon="104.3417924"><ele>746.37</ele><time>2026-05-20T19:30:43.000Z</time></trkpt>
        <trkpt lat="29.5084886" lon="104.3418834"><ele>745.32</ele><time>2026-05-20T19:30:51.000Z</time></trkpt>
        <trkpt lat="29.5084806" lon="104.3419905"><ele>744.78</ele><time>2026-05-20T19:31:07.000Z</time></trkpt>
        <trkpt lat="29.5084139" lon="104.3420804"><ele>744.27</ele><time>2026-05-20T19:31:19.000Z</time></trkpt>
        <trkpt lat="29.5083408" lon="104.3421813"><ele>743.92</ele><time>2026-05-20T19:31:29.000Z</time></trkpt>
        <trkpt lat="29.5082694" lon="104.3422754"><ele>742.38</ele><time>2026-05-20T19:31:39.000Z</time></trkpt>
        <trkpt lat="29.5081921" lon="104.3423546"><ele>739.73</ele><time>2026-05-20T19:31:51.000Z</time></trkpt>
        <trkpt lat="29.5081301" lon="104.3424361"><ele>738.41</ele><time>2026-05-20T19:32:05.000Z</time></trkpt>
        <trkpt lat="29.5080835" lon="104.3425319"><ele>737.04</ele><time>2026-05-20T19:32:15.000Z</time></trkpt>
        <trkpt lat="29.5080438" lon="104.3426331"><ele>735.41</ele><time>2026-05-20T19:32:27.000Z</time></trkpt>
        <trkpt lat="29.5079765" lon="104.3427242"><ele>734.27</ele><time>2026-05-20T19:32:37.000Z</time></trkpt>
        <trkpt lat="29.5079177" lon="104.3428104"><ele>733.43</ele><time>2026-05-20T19:32:47.000Z</time></trkpt>
        <trkpt lat="29.5078386" lon="104.342885"><ele>730.21</ele><time>2026-05-20T19:32:55.000Z</time></trkpt>
        <trkpt lat="29.507752" lon="104.3429541"><ele>728.67</ele><time>2026-05-20T19:33:07.000Z</time></trkpt>
        <trkpt lat="29.5076745" lon="104.3430449"><ele>728.19</ele><time>2026-05-20T19:33:17.000Z</time></trkpt>
        <trkpt lat="29.5075937" lon="104.343112"><ele>727.36</ele><time>2026-05-20T19:33:25.000Z</time></trkpt>
        <trkpt lat="29.5074899" lon="104.3431595"><ele>726.03</ele><time>2026-05-20T19:33:35.000Z</time></trkpt>
        <trkpt lat="29.5074119" lon="104.3432284"><ele>725.33</ele><time>2026-05-20T19:33:45.000Z</time></trkpt>
        <trkpt lat="29.5073634" lon="104.3433556"><ele>724.65</ele><time>2026-05-20T19:33:55.000Z</time></trkpt>
        <trkpt lat="29.5073082" lon="104.3434706"><ele>723.9</ele><time>2026-05-20T19:34:05.000Z</time></trkpt>
        <trkpt lat="29.5072333" lon="104.3435318"><ele>723.39</ele><time>2026-05-20T19:34:19.000Z</time></trkpt>
        <trkpt lat="29.5071462" lon="104.3435223"><ele>722.13</ele><time>2026-05-20T19:34:27.000Z</time></trkpt>
        <trkpt lat="29.5070494" lon="104.3434885"><ele>721.03</ele><time>2026-05-20T19:34:35.000Z</time></trkpt>
        <trkpt lat="29.5069507" lon="104.3434504"><ele>720.54</ele><time>2026-05-20T19:34:43.000Z</time></trkpt>
        <trkpt lat="29.506861" lon="104.3434061"><ele>720.23</ele><time>2026-05-20T19:34:51.000Z</time></trkpt>
        <trkpt lat="29.5067694" lon="104.3433482"><ele>720.49</ele><time>2026-05-20T19:35:03.000Z</time></trkpt>
        <trkpt lat="29.5066763" lon="104.3433301"><ele>719.52</ele><time>2026-05-20T19:35:15.000Z</time></trkpt>
        <trkpt lat="29.506611" lon="104.3434016"><ele>719.82</ele><time>2026-05-20T19:35:29.000Z</time></trkpt>
        <trkpt lat="29.506568" lon="104.3435096"><ele>719.36</ele><time>2026-05-20T19:35:39.000Z</time></trkpt>
        <trkpt lat="29.5065102" lon="104.3436159"><ele>718.42</ele><time>2026-05-20T19:35:51.000Z</time></trkpt>
        <trkpt lat="29.5064301" lon="104.3437037"><ele>715.96</ele><time>2026-05-20T19:36:01.000Z</time></trkpt>
        <trkpt lat="29.5063323" lon="104.3437621"><ele>714.03</ele><time>2026-05-20T19:36:11.000Z</time></trkpt>
        <trkpt lat="29.5062311" lon="104.3438011"><ele>712.17</ele><time>2026-05-20T19:36:21.000Z</time></trkpt>
        <trkpt lat="29.5061366" lon="104.3438149"><ele>710.71</ele><time>2026-05-20T19:36:31.000Z</time></trkpt>
        <trkpt lat="29.5060337" lon="104.3438226"><ele>709.32</ele><time>2026-05-20T19:36:41.000Z</time></trkpt>
        <trkpt lat="29.505934" lon="104.3438629"><ele>708.05</ele><time>2026-05-20T19:36:51.000Z</time></trkpt>
        <trkpt lat="29.5058322" lon="104.3439211"><ele>706.6</ele><time>2026-05-20T19:37:03.000Z</time></trkpt>
        <trkpt lat="29.5057405" lon="104.3439911"><ele>705.19</ele><time>2026-05-20T19:37:13.000Z</time></trkpt>
        <trkpt lat="29.5056496" lon="104.3440354"><ele>703.51</ele><time>2026-05-20T19:37:25.000Z</time></trkpt>
        <trkpt lat="29.5055536" lon="104.3440642"><ele>701.39</ele><time>2026-05-20T19:37:35.000Z</time></trkpt>
        <trkpt lat="29.5054591" lon="104.3440715"><ele>699.51</ele><time>2026-05-20T19:37:45.000Z</time></trkpt>
        <trkpt lat="29.5053543" lon="104.3440871"><ele>698</ele><time>2026-05-20T19:37:57.000Z</time></trkpt>
        <trkpt lat="29.5052531" lon="104.3440878"><ele>696.79</ele><time>2026-05-20T19:38:07.000Z</time></trkpt>
        <trkpt lat="29.5051635" lon="104.3441112"><ele>695.94</ele><time>2026-05-20T19:38:15.000Z</time></trkpt>
        <trkpt lat="29.5050684" lon="104.3440833"><ele>695.51</ele><time>2026-05-20T19:39:33.000Z</time></trkpt>
        <trkpt lat="29.5049658" lon="104.3440843"><ele>696.56</ele><time>2026-05-20T19:39:39.000Z</time></trkpt>
        <trkpt lat="29.5048689" lon="104.3440716"><ele>698.05</ele><time>2026-05-20T19:39:47.000Z</time></trkpt>
        <trkpt lat="29.5047768" lon="104.3440518"><ele>699.58</ele><time>2026-05-20T19:39:57.000Z</time></trkpt>
        <trkpt lat="29.5046668" lon="104.3440598"><ele>699.91</ele><time>2026-05-20T19:40:07.000Z</time></trkpt>
        <trkpt lat="29.5045706" lon="104.3440831"><ele>700.25</ele><time>2026-05-20T19:40:15.000Z</time></trkpt>
        <trkpt lat="29.5044758" lon="104.3441326"><ele>700.01</ele><time>2026-05-20T19:40:25.000Z</time></trkpt>
        <trkpt lat="29.5043753" lon="104.344202"><ele>699.11</ele><time>2026-05-20T19:40:35.000Z</time></trkpt>
        <trkpt lat="29.504287" lon="104.3442618"><ele>697.75</ele><time>2026-05-20T19:40:41.000Z</time></trkpt>
        <trkpt lat="29.5041913" lon="104.3443163"><ele>696.44</ele><time>2026-05-20T19:40:49.000Z</time></trkpt>
        <trkpt lat="29.5040912" lon="104.3443828"><ele>695.35</ele><time>2026-05-20T19:40:59.000Z</time></trkpt>
        <trkpt lat="29.503996" lon="104.3444304"><ele>693.77</ele><time>2026-05-20T19:41:05.000Z</time></trkpt>
        <trkpt lat="29.5038862" lon="104.3444756"><ele>692.39</ele><time>2026-05-20T19:41:15.000Z</time></trkpt>
        <trkpt lat="29.5037961" lon="104.3445238"><ele>689.35</ele><time>2026-05-20T19:41:25.000Z</time></trkpt>
        <trkpt lat="29.5037017" lon="104.3445918"><ele>683.4</ele><time>2026-05-20T19:41:35.000Z</time></trkpt>
        <trkpt lat="29.5036121" lon="104.3446575"><ele>681.08</ele><time>2026-05-20T19:41:43.000Z</time></trkpt>
        <trkpt lat="29.5035159" lon="104.3447203"><ele>679.15</ele><time>2026-05-20T19:41:53.000Z</time></trkpt>
        <trkpt lat="29.5034345" lon="104.3447898"><ele>676.9</ele><time>2026-05-20T19:42:01.000Z</time></trkpt>
        <trkpt lat="29.5033499" lon="104.3448536"><ele>678.09</ele><time>2026-05-20T19:42:09.000Z</time></trkpt>
        <trkpt lat="29.503262" lon="104.3449127"><ele>675.36</ele><time>2026-05-20T19:42:17.000Z</time></trkpt>
        <trkpt lat="29.5031783" lon="104.3449815"><ele>673.58</ele><time>2026-05-20T19:42:25.000Z</time></trkpt>
        <trkpt lat="29.5030998" lon="104.3450482"><ele>677.2</ele><time>2026-05-20T19:42:37.000Z</time></trkpt>
        <trkpt lat="29.5030294" lon="104.3451163"><ele>680.07</ele><time>2026-05-20T19:42:47.000Z</time></trkpt>
        <trkpt lat="29.5029417" lon="104.3451835"><ele>681.33</ele><time>2026-05-20T19:42:57.000Z</time></trkpt>
        <trkpt lat="29.5028611" lon="104.345254"><ele>681.25</ele><time>2026-05-20T19:43:07.000Z</time></trkpt>
        <trkpt lat="29.5027712" lon="104.3453148"><ele>680.58</ele><time>2026-05-20T19:43:15.000Z</time></trkpt>
        <trkpt lat="29.5026807" lon="104.3453669"><ele>679.89</ele><time>2026-05-20T19:43:25.000Z</time></trkpt>
        <trkpt lat="29.5025878" lon="104.3454158"><ele>678.37</ele><time>2026-05-20T19:43:35.000Z</time></trkpt>
        <trkpt lat="29.5024978" lon="104.345449"><ele>677.53</ele><time>2026-05-20T19:43:43.000Z</time></trkpt>
        <trkpt lat="29.5023975" lon="104.3454574"><ele>676.89</ele><time>2026-05-20T19:43:51.000Z</time></trkpt>
        <trkpt lat="29.5023142" lon="104.3453926"><ele>675.23</ele><time>2026-05-20T19:44:01.000Z</time></trkpt>
        <trkpt lat="29.5022175" lon="104.3453683"><ele>674.32</ele><time>2026-05-20T19:44:11.000Z</time></trkpt>
        <trkpt lat="29.5021288" lon="104.3453865"><ele>673.81</ele><time>2026-05-20T19:44:19.000Z</time></trkpt>
        <trkpt lat="29.5020393" lon="104.3454137"><ele>670.89</ele><time>2026-05-20T19:44:25.000Z</time></trkpt>
        <trkpt lat="29.5019492" lon="104.345446"><ele>668</ele><time>2026-05-20T19:44:35.000Z</time></trkpt>
        <trkpt lat="29.5018992" lon="104.3454636"><ele>664.33</ele><time>2026-05-20T19:44:41.000Z</time></trkpt>
        <trkpt lat="29.5018193" lon="104.34551"><ele>661.51</ele><time>2026-05-20T19:44:53.000Z</time></trkpt>
        <trkpt lat="29.5017932" lon="104.345534"><ele>659.01</ele><time>2026-05-20T19:44:59.000Z</time></trkpt>
        <trkpt lat="29.501729" lon="104.3455854"><ele>657</ele><time>2026-05-20T19:46:21.000Z</time></trkpt>
        <trkpt lat="29.5016513" lon="104.3456702"><ele>655.35</ele><time>2026-05-20T19:46:33.000Z</time></trkpt>
        <trkpt lat="29.5016151" lon="104.3457756"><ele>653.76</ele><time>2026-05-20T19:47:01.000Z</time></trkpt>
        <trkpt lat="29.5015367" lon="104.3458586"><ele>652.6</ele><time>2026-05-20T19:47:13.000Z</time></trkpt>
        <trkpt lat="29.5014604" lon="104.3459243"><ele>651.99</ele><time>2026-05-20T19:47:23.000Z</time></trkpt>
        <trkpt lat="29.5013958" lon="104.3460017"><ele>650.37</ele><time>2026-05-20T19:47:33.000Z</time></trkpt>
        <trkpt lat="29.501321" lon="104.3460731"><ele>649.36</ele><time>2026-05-20T19:47:43.000Z</time></trkpt>
        <trkpt lat="29.5012366" lon="104.3461279"><ele>649.21</ele><time>2026-05-20T19:47:53.000Z</time></trkpt>
        <trkpt lat="29.5011733" lon="104.346205"><ele>649.57</ele><time>2026-05-20T19:48:05.000Z</time></trkpt>
        <trkpt lat="29.5011029" lon="104.3462815"><ele>650.11</ele><time>2026-05-20T19:48:15.000Z</time></trkpt>
        <trkpt lat="29.5010382" lon="104.3463665"><ele>650.11</ele><time>2026-05-20T19:48:23.000Z</time></trkpt>
        <trkpt lat="29.5009607" lon="104.3464303"><ele>649.99</ele><time>2026-05-20T19:48:31.000Z</time></trkpt>
        <trkpt lat="29.5008846" lon="104.3465048"><ele>650.03</ele><time>2026-05-20T19:48:41.000Z</time></trkpt>
        <trkpt lat="29.5008062" lon="104.3465839"><ele>649.91</ele><time>2026-05-20T19:48:51.000Z</time></trkpt>
        <trkpt lat="29.5007327" lon="104.3466533"><ele>649.91</ele><time>2026-05-20T19:49:01.000Z</time></trkpt>
        <trkpt lat="29.5006583" lon="104.3467196"><ele>650.1</ele><time>2026-05-20T19:49:09.000Z</time></trkpt>
        <trkpt lat="29.5005789" lon="104.3467914"><ele>650.24</ele><time>2026-05-20T19:49:19.000Z</time></trkpt>
        <trkpt lat="29.5004984" lon="104.3468456"><ele>649.94</ele><time>2026-05-20T19:49:27.000Z</time></trkpt>
        <trkpt lat="29.5004164" lon="104.3468909"><ele>649.68</ele><time>2026-05-20T19:49:33.000Z</time></trkpt>
        <trkpt lat="29.5003609" lon="104.3469857"><ele>649.72</ele><time>2026-05-20T19:49:47.000Z</time></trkpt>
        <trkpt lat="29.5003076" lon="104.347099"><ele>650.45</ele><time>2026-05-20T19:49:55.000Z</time></trkpt>
        <trkpt lat="29.5002417" lon="104.3471908"><ele>651.29</ele><time>2026-05-20T19:50:03.000Z</time></trkpt>
        <trkpt lat="29.5001655" lon="104.3472608"><ele>652.1</ele><time>2026-05-20T19:50:11.000Z</time></trkpt>
        <trkpt lat="29.50009" lon="104.3473224"><ele>652.36</ele><time>2026-05-20T19:50:21.000Z</time></trkpt>
        <trkpt lat="29.5000133" lon="104.3473987"><ele>651.93</ele><time>2026-05-20T19:50:31.000Z</time></trkpt>
        <trkpt lat="29.4999325" lon="104.3474844"><ele>651.66</ele><time>2026-05-20T19:50:41.000Z</time></trkpt>
        <trkpt lat="29.4998343" lon="104.3475338"><ele>651.49</ele><time>2026-05-20T19:50:49.000Z</time></trkpt>
        <trkpt lat="29.4997556" lon="104.3475975"><ele>652.13</ele><time>2026-05-20T19:50:59.000Z</time></trkpt>
        <trkpt lat="29.4996648" lon="104.3476802"><ele>653.26</ele><time>2026-05-20T19:51:09.000Z</time></trkpt>
        <trkpt lat="29.4995835" lon="104.3477651"><ele>653.72</ele><time>2026-05-20T19:51:21.000Z</time></trkpt>
        <trkpt lat="29.4995022" lon="104.347851"><ele>653.07</ele><time>2026-05-20T19:51:29.000Z</time></trkpt>
        <trkpt lat="29.4994294" lon="104.3479383"><ele>653.87</ele><time>2026-05-20T19:51:41.000Z</time></trkpt>
        <trkpt lat="29.4993497" lon="104.3480141"><ele>653.57</ele><time>2026-05-20T19:51:51.000Z</time></trkpt>
        <trkpt lat="29.4992675" lon="104.3480919"><ele>653.1</ele><time>2026-05-20T19:52:01.000Z</time></trkpt>
        <trkpt lat="29.4991894" lon="104.3481648"><ele>652.99</ele><time>2026-05-20T19:52:17.000Z</time></trkpt>
        <trkpt lat="29.4991267" lon="104.3482684"><ele>653.49</ele><time>2026-05-20T19:52:27.000Z</time></trkpt>
        <trkpt lat="29.4991365" lon="104.3483901"><ele>654.07</ele><time>2026-05-20T19:52:37.000Z</time></trkpt>
        <trkpt lat="29.49917" lon="104.3485031"><ele>655.36</ele><time>2026-05-20T19:52:49.000Z</time></trkpt>
        <trkpt lat="29.4992356" lon="104.3485909"><ele>654.42</ele><time>2026-05-20T19:53:01.000Z</time></trkpt>
        <trkpt lat="29.4993212" lon="104.3486737"><ele>654.03</ele><time>2026-05-20T19:53:11.000Z</time></trkpt>
        <trkpt lat="29.4994113" lon="104.3487594"><ele>656.98</ele><time>2026-05-20T19:53:23.000Z</time></trkpt>
        <trkpt lat="29.4994861" lon="104.348841"><ele>658.57</ele><time>2026-05-20T19:53:39.000Z</time></trkpt>
        <trkpt lat="29.4995403" lon="104.3489419"><ele>657.6</ele><time>2026-05-20T19:53:53.000Z</time></trkpt>
        <trkpt lat="29.499592" lon="104.3490483"><ele>658.85</ele><time>2026-05-20T19:54:03.000Z</time></trkpt>
        <trkpt lat="29.499592" lon="104.3490483"><ele>658.85</ele><time>2026-05-20T19:54:11.000Z</time></trkpt>
      </trkseg>
  </trk>
</gpx>